<?xml version="1.0" encoding="UTF-8" standalone="no" ?>
<gpx xmlns="http://www.topografix.com/GPX/1/1" xmlns:xsi="http://www.w3.org/2001/XMLSchema-instance" xsi:schemaLocation="http://www.topografix.com/GPX/1/1 http://www.topografix.com/GPX/1/1/gpx.xsd" version="1.1" creator="VisuGPX - https://www.visugpx.com">
  <metadata>
    <name>pont du Loup Cavilore</name>
    <desc><![CDATA[randonnée autour de gGurdon (Alpes Maritimes)]]></desc>
  </metadata>
  <trk>
    <name><![CDATA[ACTIVE LOG]]></name>
    <trkseg>
      <trkpt lat="43.71517" lon="6.98758">
        <ele>204.4174805</ele>
        <time>2011-05-08T07:31:33Z</time>
      </trkpt>
      <trkpt lat="43.71515" lon="6.98763">
        <ele>213.5500488</ele>
        <time>2011-05-08T07:31:39Z</time>
      </trkpt>
      <trkpt lat="43.71504" lon="6.9876">
        <ele>224.6052246</ele>
        <time>2011-05-08T07:31:48Z</time>
      </trkpt>
      <trkpt lat="43.71494" lon="6.98754">
        <ele>231.3343506</ele>
        <time>2011-05-08T07:31:55Z</time>
      </trkpt>
      <trkpt lat="43.71488" lon="6.9875">
        <ele>234.6990967</ele>
        <time>2011-05-08T07:31:59Z</time>
      </trkpt>
      <trkpt lat="43.71478" lon="6.98744">
        <ele>238.5443115</ele>
        <time>2011-05-08T07:32:05Z</time>
      </trkpt>
      <trkpt lat="43.71466" lon="6.98732">
        <ele>244.3122559</ele>
        <time>2011-05-08T07:32:17Z</time>
      </trkpt>
      <trkpt lat="43.71454" lon="6.98723">
        <ele>249.1187744</ele>
        <time>2011-05-08T07:32:32Z</time>
      </trkpt>
      <trkpt lat="43.71526" lon="6.98631">
        <ele>281.8035889</ele>
        <time>2011-05-08T07:35:16Z</time>
      </trkpt>
      <trkpt lat="43.7153" lon="6.98636">
        <ele>281.8035889</ele>
        <time>2011-05-08T07:35:19Z</time>
      </trkpt>
      <trkpt lat="43.71531" lon="6.98627">
        <ele>290.9361572</ele>
        <time>2011-05-08T07:36:01Z</time>
      </trkpt>
      <trkpt lat="43.71561" lon="6.98641">
        <ele>297.6654053</ele>
        <time>2011-05-08T07:36:34Z</time>
      </trkpt>
      <trkpt lat="43.71575" lon="6.98649">
        <ele>300.5493164</ele>
        <time>2011-05-08T07:36:49Z</time>
      </trkpt>
      <trkpt lat="43.71595" lon="6.98661">
        <ele>305.355957</ele>
        <time>2011-05-08T07:37:11Z</time>
      </trkpt>
      <trkpt lat="43.71561" lon="6.98617">
        <ele>313.5272217</ele>
        <time>2011-05-08T07:37:48Z</time>
      </trkpt>
      <trkpt lat="43.71569" lon="6.98586">
        <ele>316.4110107</ele>
        <time>2011-05-08T07:38:03Z</time>
      </trkpt>
      <trkpt lat="43.71577" lon="6.9848">
        <ele>330.3502197</ele>
        <time>2011-05-08T07:39:07Z</time>
      </trkpt>
      <trkpt lat="43.71589" lon="6.98483">
        <ele>335.1567383</ele>
        <time>2011-05-08T07:39:24Z</time>
      </trkpt>
      <trkpt lat="43.71581" lon="6.98489">
        <ele>346.692627</ele>
        <time>2011-05-08T07:40:18Z</time>
      </trkpt>
      <trkpt lat="43.71594" lon="6.98486">
        <ele>350.5378418</ele>
        <time>2011-05-08T07:40:39Z</time>
      </trkpt>
      <trkpt lat="43.71609" lon="6.98481">
        <ele>353.9025879</ele>
        <time>2011-05-08T07:40:58Z</time>
      </trkpt>
      <trkpt lat="43.71645" lon="6.98468">
        <ele>360.6317139</ele>
        <time>2011-05-08T07:41:44Z</time>
      </trkpt>
      <trkpt lat="43.71581" lon="6.98276">
        <ele>379.8580322</ele>
        <time>2011-05-08T07:43:34Z</time>
      </trkpt>
      <trkpt lat="43.71556" lon="6.98193">
        <ele>389.4711914</ele>
        <time>2011-05-08T07:44:36Z</time>
      </trkpt>
      <trkpt lat="43.71556" lon="6.98182">
        <ele>392.8359375</ele>
        <time>2011-05-08T07:44:48Z</time>
      </trkpt>
      <trkpt lat="43.71561" lon="6.98159">
        <ele>399.5650635</ele>
        <time>2011-05-08T07:45:32Z</time>
      </trkpt>
      <trkpt lat="43.71585" lon="6.98177">
        <ele>401.9685059</ele>
        <time>2011-05-08T07:45:51Z</time>
      </trkpt>
      <trkpt lat="43.71584" lon="6.9811">
        <ele>418.310791</ele>
        <time>2011-05-08T07:47:30Z</time>
      </trkpt>
      <trkpt lat="43.71576" lon="6.98101">
        <ele>418.310791</ele>
        <time>2011-05-08T07:47:39Z</time>
      </trkpt>
      <trkpt lat="43.71577" lon="6.98088">
        <ele>419.7528076</ele>
        <time>2011-05-08T07:48:17Z</time>
      </trkpt>
      <trkpt lat="43.71599" lon="6.98078">
        <ele>424.5594482</ele>
        <time>2011-05-08T07:48:42Z</time>
      </trkpt>
      <trkpt lat="43.71616" lon="6.98064">
        <ele>429.3659668</ele>
        <time>2011-05-08T07:49:09Z</time>
      </trkpt>
      <trkpt lat="43.71624" lon="6.98056">
        <ele>435.614502</ele>
        <time>2011-05-08T07:49:44Z</time>
      </trkpt>
      <trkpt lat="43.71629" lon="6.98038">
        <ele>438.979126</ele>
        <time>2011-05-08T07:49:57Z</time>
      </trkpt>
      <trkpt lat="43.71629" lon="6.98024">
        <ele>442.3438721</ele>
        <time>2011-05-08T07:50:07Z</time>
      </trkpt>
      <trkpt lat="43.71664" lon="6.97942">
        <ele>458.2055664</ele>
        <time>2011-05-08T07:51:33Z</time>
      </trkpt>
      <trkpt lat="43.71675" lon="6.97915">
        <ele>458.6861572</ele>
        <time>2011-05-08T07:51:37Z</time>
      </trkpt>
      <trkpt lat="43.71679" lon="6.97907">
        <ele>472.1446533</ele>
        <time>2011-05-08T07:52:44Z</time>
      </trkpt>
      <trkpt lat="43.71682" lon="6.979">
        <ele>508.6746826</ele>
        <time>2011-05-08T07:57:21Z</time>
      </trkpt>
      <trkpt lat="43.717" lon="6.97798">
        <ele>511.5587158</ele>
        <time>2011-05-08T07:57:36Z</time>
      </trkpt>
      <trkpt lat="43.71721" lon="6.9781">
        <ele>517.807251</ele>
        <time>2011-05-08T07:58:07Z</time>
      </trkpt>
      <trkpt lat="43.71739" lon="6.97817">
        <ele>520.2105713</ele>
        <time>2011-05-08T07:58:21Z</time>
      </trkpt>
      <trkpt lat="43.71754" lon="6.97829">
        <ele>523.5751953</ele>
        <time>2011-05-08T07:58:37Z</time>
      </trkpt>
      <trkpt lat="43.71756" lon="6.97852">
        <ele>527.4204102</ele>
        <time>2011-05-08T07:58:54Z</time>
      </trkpt>
      <trkpt lat="43.71763" lon="6.97863">
        <ele>533.6689453</ele>
        <time>2011-05-08T07:59:41Z</time>
      </trkpt>
      <trkpt lat="43.71765" lon="6.9788">
        <ele>534.6303711</ele>
        <time>2011-05-08T07:59:52Z</time>
      </trkpt>
      <trkpt lat="43.71783" lon="6.9792">
        <ele>542.8015137</ele>
        <time>2011-05-08T08:00:40Z</time>
      </trkpt>
      <trkpt lat="43.71778" lon="6.97926">
        <ele>546.6468506</ele>
        <time>2011-05-08T08:01:03Z</time>
      </trkpt>
      <trkpt lat="43.71765" lon="6.97933">
        <ele>548.5693359</ele>
        <time>2011-05-08T08:01:24Z</time>
      </trkpt>
      <trkpt lat="43.71763" lon="6.97935">
        <ele>560.1052246</ele>
        <time>2011-05-08T08:02:31Z</time>
      </trkpt>
      <trkpt lat="43.71772" lon="6.97943">
        <ele>578.3703613</ele>
        <time>2011-05-08T08:04:36Z</time>
      </trkpt>
      <trkpt lat="43.71779" lon="6.97961">
        <ele>581.7348633</ele>
        <time>2011-05-08T08:04:48Z</time>
      </trkpt>
      <trkpt lat="43.71787" lon="6.97965">
        <ele>583.1767578</ele>
        <time>2011-05-08T08:04:58Z</time>
      </trkpt>
      <trkpt lat="43.71822" lon="6.97931">
        <ele>594.2321777</ele>
        <time>2011-05-08T08:05:59Z</time>
      </trkpt>
      <trkpt lat="43.71825" lon="6.97943">
        <ele>596.1547852</ele>
        <time>2011-05-08T08:06:09Z</time>
      </trkpt>
      <trkpt lat="43.71835" lon="6.97985">
        <ele>602.4030762</ele>
        <time>2011-05-08T08:06:43Z</time>
      </trkpt>
      <trkpt lat="43.71851" lon="6.97982">
        <ele>605.2873535</ele>
        <time>2011-05-08T08:07:06Z</time>
      </trkpt>
      <trkpt lat="43.71853" lon="6.97972">
        <ele>608.1713867</ele>
        <time>2011-05-08T08:07:18Z</time>
      </trkpt>
      <trkpt lat="43.71874" lon="6.97928">
        <ele>617.7841797</ele>
        <time>2011-05-08T08:08:02Z</time>
      </trkpt>
      <trkpt lat="43.7188" lon="6.97923">
        <ele>619.7070313</ele>
        <time>2011-05-08T08:08:18Z</time>
      </trkpt>
      <trkpt lat="43.71884" lon="6.97944">
        <ele>624.9943848</ele>
        <time>2011-05-08T08:08:49Z</time>
      </trkpt>
      <trkpt lat="43.7188" lon="6.97957">
        <ele>628.3588867</ele>
        <time>2011-05-08T08:09:05Z</time>
      </trkpt>
      <trkpt lat="43.71895" lon="6.97977">
        <ele>637.0107422</ele>
        <time>2011-05-08T08:09:49Z</time>
      </trkpt>
      <trkpt lat="43.719" lon="6.97983">
        <ele>643.2592773</ele>
        <time>2011-05-08T08:10:17Z</time>
      </trkpt>
      <trkpt lat="43.719" lon="6.98008">
        <ele>648.5463867</ele>
        <time>2011-05-08T08:10:48Z</time>
      </trkpt>
      <trkpt lat="43.71911" lon="6.98004">
        <ele>653.3532715</ele>
        <time>2011-05-08T08:11:12Z</time>
      </trkpt>
      <trkpt lat="43.71912" lon="6.98007">
        <ele>657.6791992</ele>
        <time>2011-05-08T08:11:36Z</time>
      </trkpt>
      <trkpt lat="43.71921" lon="6.9801">
        <ele>659.6018066</ele>
        <time>2011-05-08T08:11:51Z</time>
      </trkpt>
      <trkpt lat="43.71926" lon="6.98013">
        <ele>659.6018066</ele>
        <time>2011-05-08T08:11:56Z</time>
      </trkpt>
      <trkpt lat="43.71958" lon="6.98019">
        <ele>662.4855957</ele>
        <time>2011-05-08T08:12:22Z</time>
      </trkpt>
      <trkpt lat="43.71965" lon="6.98015">
        <ele>663.4470215</ele>
        <time>2011-05-08T08:12:27Z</time>
      </trkpt>
      <trkpt lat="43.71974" lon="6.9799">
        <ele>669.2150879</ele>
        <time>2011-05-08T08:13:04Z</time>
      </trkpt>
      <trkpt lat="43.71963" lon="6.97982">
        <ele>673.0603027</ele>
        <time>2011-05-08T08:13:23Z</time>
      </trkpt>
      <trkpt lat="43.71969" lon="6.9798">
        <ele>674.9829102</ele>
        <time>2011-05-08T08:13:35Z</time>
      </trkpt>
      <trkpt lat="43.71963" lon="6.97964">
        <ele>679.3085938</ele>
        <time>2011-05-08T08:13:57Z</time>
      </trkpt>
      <trkpt lat="43.71969" lon="6.9796">
        <ele>681.7119141</ele>
        <time>2011-05-08T08:14:09Z</time>
      </trkpt>
      <trkpt lat="43.71973" lon="6.9795">
        <ele>687.9606934</ele>
        <time>2011-05-08T08:14:41Z</time>
      </trkpt>
      <trkpt lat="43.71986" lon="6.97948">
        <ele>693.7285156</ele>
        <time>2011-05-08T08:15:11Z</time>
      </trkpt>
      <trkpt lat="43.71989" lon="6.97954">
        <ele>697.0930176</ele>
        <time>2011-05-08T08:15:23Z</time>
      </trkpt>
      <trkpt lat="43.72016" lon="6.97955">
        <ele>699.9770508</ele>
        <time>2011-05-08T08:15:45Z</time>
      </trkpt>
      <trkpt lat="43.72033" lon="6.97946">
        <ele>703.3417969</ele>
        <time>2011-05-08T08:16:00Z</time>
      </trkpt>
      <trkpt lat="43.72054" lon="6.97936">
        <ele>704.7836914</ele>
        <time>2011-05-08T08:16:14Z</time>
      </trkpt>
      <trkpt lat="43.7208" lon="6.9793">
        <ele>706.2255859</ele>
        <time>2011-05-08T08:16:30Z</time>
      </trkpt>
      <trkpt lat="43.72094" lon="6.97932">
        <ele>709.590332</ele>
        <time>2011-05-08T08:16:42Z</time>
      </trkpt>
      <trkpt lat="43.72093" lon="6.97919">
        <ele>718.7229004</ele>
        <time>2011-05-08T08:17:21Z</time>
      </trkpt>
      <trkpt lat="43.72082" lon="6.97907">
        <ele>723.0488281</ele>
        <time>2011-05-08T08:17:53Z</time>
      </trkpt>
      <trkpt lat="43.72052" lon="6.97841">
        <ele>730.7392578</ele>
        <time>2011-05-08T08:18:47Z</time>
      </trkpt>
      <trkpt lat="43.72067" lon="6.9782">
        <ele>727.3747559</ele>
        <time>2011-05-08T08:19:24Z</time>
      </trkpt>
      <trkpt lat="43.72088" lon="6.97803">
        <ele>724.4907227</ele>
        <time>2011-05-08T08:19:41Z</time>
      </trkpt>
      <trkpt lat="43.72108" lon="6.97781">
        <ele>722.5681152</ele>
        <time>2011-05-08T08:20:00Z</time>
      </trkpt>
      <trkpt lat="43.72138" lon="6.97733">
        <ele>717.2810059</ele>
        <time>2011-05-08T08:20:44Z</time>
      </trkpt>
      <trkpt lat="43.72143" lon="6.97704">
        <ele>717.7614746</ele>
        <time>2011-05-08T08:20:59Z</time>
      </trkpt>
      <trkpt lat="43.72146" lon="6.97699">
        <ele>717.7614746</ele>
        <time>2011-05-08T08:21:13Z</time>
      </trkpt>
      <trkpt lat="43.72154" lon="6.97686">
        <ele>719.2036133</ele>
        <time>2011-05-08T08:21:28Z</time>
      </trkpt>
      <trkpt lat="43.7216" lon="6.97658">
        <ele>722.0874023</ele>
        <time>2011-05-08T08:21:51Z</time>
      </trkpt>
      <trkpt lat="43.72163" lon="6.97635">
        <ele>724.4907227</ele>
        <time>2011-05-08T08:22:08Z</time>
      </trkpt>
      <trkpt lat="43.72167" lon="6.97588">
        <ele>726.4133301</ele>
        <time>2011-05-08T08:22:36Z</time>
      </trkpt>
      <trkpt lat="43.72171" lon="6.97576">
        <ele>729.777832</ele>
        <time>2011-05-08T08:22:46Z</time>
      </trkpt>
      <trkpt lat="43.72174" lon="6.97552">
        <ele>732.1813965</ele>
        <time>2011-05-08T08:23:02Z</time>
      </trkpt>
      <trkpt lat="43.72173" lon="6.97521">
        <ele>734.5847168</ele>
        <time>2011-05-08T08:23:18Z</time>
      </trkpt>
      <trkpt lat="43.72163" lon="6.97487">
        <ele>736.5073242</ele>
        <time>2011-05-08T08:23:36Z</time>
      </trkpt>
      <trkpt lat="43.72162" lon="6.9748">
        <ele>736.987793</ele>
        <time>2011-05-08T08:23:40Z</time>
      </trkpt>
      <trkpt lat="43.72162" lon="6.97473">
        <ele>736.987793</ele>
        <time>2011-05-08T08:23:44Z</time>
      </trkpt>
      <trkpt lat="43.7216" lon="6.97461">
        <ele>737.4685059</ele>
        <time>2011-05-08T08:23:49Z</time>
      </trkpt>
      <trkpt lat="43.72161" lon="6.97441">
        <ele>739.3911133</ele>
        <time>2011-05-08T08:24:03Z</time>
      </trkpt>
      <trkpt lat="43.7218" lon="6.97455">
        <ele>742.2751465</ele>
        <time>2011-05-08T08:24:15Z</time>
      </trkpt>
      <trkpt lat="43.72194" lon="6.9747">
        <ele>744.1977539</ele>
        <time>2011-05-08T08:24:29Z</time>
      </trkpt>
      <trkpt lat="43.72207" lon="6.97484">
        <ele>746.1203613</ele>
        <time>2011-05-08T08:24:42Z</time>
      </trkpt>
      <trkpt lat="43.72218" lon="6.97494">
        <ele>750.4465332</ele>
        <time>2011-05-08T08:24:55Z</time>
      </trkpt>
      <trkpt lat="43.72235" lon="6.97496">
        <ele>754.291748</ele>
        <time>2011-05-08T08:25:12Z</time>
      </trkpt>
      <trkpt lat="43.72248" lon="6.97494">
        <ele>756.6948242</ele>
        <time>2011-05-08T08:25:24Z</time>
      </trkpt>
      <trkpt lat="43.72274" lon="6.97505">
        <ele>758.6174316</ele>
        <time>2011-05-08T08:25:43Z</time>
      </trkpt>
      <trkpt lat="43.72295" lon="6.97508">
        <ele>759.0981445</ele>
        <time>2011-05-08T08:25:57Z</time>
      </trkpt>
      <trkpt lat="43.72311" lon="6.97502">
        <ele>759.5788574</ele>
        <time>2011-05-08T08:26:10Z</time>
      </trkpt>
      <trkpt lat="43.72332" lon="6.97486">
        <ele>762.4626465</ele>
        <time>2011-05-08T08:26:28Z</time>
      </trkpt>
      <trkpt lat="43.72344" lon="6.97472">
        <ele>763.904541</ele>
        <time>2011-05-08T08:26:41Z</time>
      </trkpt>
      <trkpt lat="43.72349" lon="6.97472">
        <ele>765.3469238</ele>
        <time>2011-05-08T08:26:46Z</time>
      </trkpt>
      <trkpt lat="43.72358" lon="6.9749">
        <ele>769.6728516</ele>
        <time>2011-05-08T08:27:03Z</time>
      </trkpt>
      <trkpt lat="43.72361" lon="6.97495">
        <ele>771.1147461</ele>
        <time>2011-05-08T08:27:10Z</time>
      </trkpt>
      <trkpt lat="43.72389" lon="6.97528">
        <ele>777.3632813</ele>
        <time>2011-05-08T08:27:37Z</time>
      </trkpt>
      <trkpt lat="43.72391" lon="6.9754">
        <ele>779.2856445</ele>
        <time>2011-05-08T08:27:46Z</time>
      </trkpt>
      <trkpt lat="43.72397" lon="6.97566">
        <ele>780.7280273</ele>
        <time>2011-05-08T08:28:02Z</time>
      </trkpt>
      <trkpt lat="43.72408" lon="6.97591">
        <ele>785.0539551</ele>
        <time>2011-05-08T08:28:22Z</time>
      </trkpt>
      <trkpt lat="43.72418" lon="6.97612">
        <ele>787.9377441</ele>
        <time>2011-05-08T08:28:39Z</time>
      </trkpt>
      <trkpt lat="43.72422" lon="6.97601">
        <ele>791.3022461</ele>
        <time>2011-05-08T08:29:30Z</time>
      </trkpt>
      <trkpt lat="43.72423" lon="6.97594">
        <ele>793.7055664</ele>
        <time>2011-05-08T08:29:41Z</time>
      </trkpt>
      <trkpt lat="43.72429" lon="6.97591">
        <ele>796.1091309</ele>
        <time>2011-05-08T08:29:54Z</time>
      </trkpt>
      <trkpt lat="43.72438" lon="6.97602">
        <ele>798.0317383</ele>
        <time>2011-05-08T08:30:08Z</time>
      </trkpt>
      <trkpt lat="43.72456" lon="6.976">
        <ele>801.3962402</ele>
        <time>2011-05-08T08:30:25Z</time>
      </trkpt>
      <trkpt lat="43.72469" lon="6.97587">
        <ele>803.3188477</ele>
        <time>2011-05-08T08:30:38Z</time>
      </trkpt>
      <trkpt lat="43.72486" lon="6.97571">
        <ele>805.722168</ele>
        <time>2011-05-08T08:30:55Z</time>
      </trkpt>
      <trkpt lat="43.72497" lon="6.97561">
        <ele>807.1640625</ele>
        <time>2011-05-08T08:31:08Z</time>
      </trkpt>
      <trkpt lat="43.72504" lon="6.97554">
        <ele>810.5285645</ele>
        <time>2011-05-08T08:31:16Z</time>
      </trkpt>
      <trkpt lat="43.72516" lon="6.97546">
        <ele>812.9321289</ele>
        <time>2011-05-08T08:31:27Z</time>
      </trkpt>
      <trkpt lat="43.72513" lon="6.97532">
        <ele>813.8933105</ele>
        <time>2011-05-08T08:31:35Z</time>
      </trkpt>
      <trkpt lat="43.72504" lon="6.97521">
        <ele>816.2966309</ele>
        <time>2011-05-08T08:31:42Z</time>
      </trkpt>
      <trkpt lat="43.72495" lon="6.9751">
        <ele>818.2192383</ele>
        <time>2011-05-08T08:31:54Z</time>
      </trkpt>
      <trkpt lat="43.72499" lon="6.97501">
        <ele>820.1418457</ele>
        <time>2011-05-08T08:32:02Z</time>
      </trkpt>
      <trkpt lat="43.72502" lon="6.97496">
        <ele>821.1032715</ele>
        <time>2011-05-08T08:32:06Z</time>
      </trkpt>
      <trkpt lat="43.72511" lon="6.97474">
        <ele>823.9870605</ele>
        <time>2011-05-08T08:32:21Z</time>
      </trkpt>
      <trkpt lat="43.72514" lon="6.97469">
        <ele>824.4677734</ele>
        <time>2011-05-08T08:32:25Z</time>
      </trkpt>
      <trkpt lat="43.72519" lon="6.97451">
        <ele>825.909668</ele>
        <time>2011-05-08T08:32:36Z</time>
      </trkpt>
      <trkpt lat="43.72522" lon="6.97447">
        <ele>826.3903809</ele>
        <time>2011-05-08T08:32:40Z</time>
      </trkpt>
      <trkpt lat="43.72535" lon="6.97428">
        <ele>827.8322754</ele>
        <time>2011-05-08T08:32:56Z</time>
      </trkpt>
      <trkpt lat="43.72541" lon="6.97427">
        <ele>828.7939453</ele>
        <time>2011-05-08T08:33:00Z</time>
      </trkpt>
      <trkpt lat="43.72559" lon="6.9745">
        <ele>829.755127</ele>
        <time>2011-05-08T08:33:16Z</time>
      </trkpt>
      <trkpt lat="43.72571" lon="6.97468">
        <ele>831.6777344</ele>
        <time>2011-05-08T08:33:30Z</time>
      </trkpt>
      <trkpt lat="43.72578" lon="6.97478">
        <ele>832.1584473</ele>
        <time>2011-05-08T08:33:41Z</time>
      </trkpt>
      <trkpt lat="43.72592" lon="6.975">
        <ele>834.0810547</ele>
        <time>2011-05-08T08:33:58Z</time>
      </trkpt>
      <trkpt lat="43.72603" lon="6.97518">
        <ele>837.4455566</ele>
        <time>2011-05-08T08:34:12Z</time>
      </trkpt>
      <trkpt lat="43.72607" lon="6.97527">
        <ele>839.3681641</ele>
        <time>2011-05-08T08:34:19Z</time>
      </trkpt>
      <trkpt lat="43.72618" lon="6.97528">
        <ele>841.2907715</ele>
        <time>2011-05-08T08:34:32Z</time>
      </trkpt>
      <trkpt lat="43.72619" lon="6.97536">
        <ele>842.7329102</ele>
        <time>2011-05-08T08:34:37Z</time>
      </trkpt>
      <trkpt lat="43.72619" lon="6.97545">
        <ele>843.2133789</ele>
        <time>2011-05-08T08:34:42Z</time>
      </trkpt>
      <trkpt lat="43.72625" lon="6.97568">
        <ele>844.1750488</ele>
        <time>2011-05-08T08:34:57Z</time>
      </trkpt>
      <trkpt lat="43.72627" lon="6.97588">
        <ele>845.1362305</ele>
        <time>2011-05-08T08:35:09Z</time>
      </trkpt>
      <trkpt lat="43.72629" lon="6.97608">
        <ele>846.0976563</ele>
        <time>2011-05-08T08:35:22Z</time>
      </trkpt>
      <trkpt lat="43.72631" lon="6.97621">
        <ele>846.0976563</ele>
        <time>2011-05-08T08:35:30Z</time>
      </trkpt>
      <trkpt lat="43.72645" lon="6.97632">
        <ele>848.5007324</ele>
        <time>2011-05-08T08:35:43Z</time>
      </trkpt>
      <trkpt lat="43.72657" lon="6.97646">
        <ele>849.9428711</ele>
        <time>2011-05-08T08:35:58Z</time>
      </trkpt>
      <trkpt lat="43.72661" lon="6.97642">
        <ele>852.8266602</ele>
        <time>2011-05-08T08:36:06Z</time>
      </trkpt>
      <trkpt lat="43.72669" lon="6.97639">
        <ele>854.7492676</ele>
        <time>2011-05-08T08:36:18Z</time>
      </trkpt>
      <trkpt lat="43.72679" lon="6.97651">
        <ele>858.1140137</ele>
        <time>2011-05-08T08:36:31Z</time>
      </trkpt>
      <trkpt lat="43.72682" lon="6.97657">
        <ele>859.0751953</ele>
        <time>2011-05-08T08:36:36Z</time>
      </trkpt>
      <trkpt lat="43.72687" lon="6.97672">
        <ele>859.0751953</ele>
        <time>2011-05-08T08:36:48Z</time>
      </trkpt>
      <trkpt lat="43.72698" lon="6.97694">
        <ele>859.0751953</ele>
        <time>2011-05-08T08:37:01Z</time>
      </trkpt>
      <trkpt lat="43.72706" lon="6.97699">
        <ele>860.517334</ele>
        <time>2011-05-08T08:37:08Z</time>
      </trkpt>
      <trkpt lat="43.72717" lon="6.97705">
        <ele>863.8818359</ele>
        <time>2011-05-08T08:37:18Z</time>
      </trkpt>
      <trkpt lat="43.72725" lon="6.97718">
        <ele>864.3625488</ele>
        <time>2011-05-08T08:37:28Z</time>
      </trkpt>
      <trkpt lat="43.72734" lon="6.97742">
        <ele>864.8432617</ele>
        <time>2011-05-08T08:37:40Z</time>
      </trkpt>
      <trkpt lat="43.72747" lon="6.97763">
        <ele>867.7270508</ele>
        <time>2011-05-08T08:37:56Z</time>
      </trkpt>
      <trkpt lat="43.72758" lon="6.97767">
        <ele>871.5722656</ele>
        <time>2011-05-08T08:38:10Z</time>
      </trkpt>
      <trkpt lat="43.72768" lon="6.97776">
        <ele>874.4562988</ele>
        <time>2011-05-08T08:38:22Z</time>
      </trkpt>
      <trkpt lat="43.72778" lon="6.97786">
        <ele>877.3405762</ele>
        <time>2011-05-08T08:38:36Z</time>
      </trkpt>
      <trkpt lat="43.72784" lon="6.97789">
        <ele>878.3017578</ele>
        <time>2011-05-08T08:38:41Z</time>
      </trkpt>
      <trkpt lat="43.728" lon="6.97807">
        <ele>880.7050781</ele>
        <time>2011-05-08T08:38:57Z</time>
      </trkpt>
      <trkpt lat="43.72806" lon="6.97806">
        <ele>882.1469727</ele>
        <time>2011-05-08T08:39:02Z</time>
      </trkpt>
      <trkpt lat="43.72815" lon="6.97809">
        <ele>885.0310059</ele>
        <time>2011-05-08T08:39:13Z</time>
      </trkpt>
      <trkpt lat="43.72819" lon="6.97811">
        <ele>885.9921875</ele>
        <time>2011-05-08T08:39:20Z</time>
      </trkpt>
      <trkpt lat="43.72824" lon="6.97817">
        <ele>887.434082</ele>
        <time>2011-05-08T08:39:26Z</time>
      </trkpt>
      <trkpt lat="43.72833" lon="6.97827">
        <ele>890.798584</ele>
        <time>2011-05-08T08:39:36Z</time>
      </trkpt>
      <trkpt lat="43.72843" lon="6.97846">
        <ele>893.2021484</ele>
        <time>2011-05-08T08:39:49Z</time>
      </trkpt>
      <trkpt lat="43.72852" lon="6.97862">
        <ele>894.644043</ele>
        <time>2011-05-08T08:40:01Z</time>
      </trkpt>
      <trkpt lat="43.72862" lon="6.97878">
        <ele>896.5668945</ele>
        <time>2011-05-08T08:40:13Z</time>
      </trkpt>
      <trkpt lat="43.72868" lon="6.97885">
        <ele>898.4892578</ele>
        <time>2011-05-08T08:40:21Z</time>
      </trkpt>
      <trkpt lat="43.72881" lon="6.97906">
        <ele>900.4121094</ele>
        <time>2011-05-08T08:40:38Z</time>
      </trkpt>
      <trkpt lat="43.72895" lon="6.97909">
        <ele>906.6604004</ele>
        <time>2011-05-08T08:41:04Z</time>
      </trkpt>
      <trkpt lat="43.72894" lon="6.97898">
        <ele>907.6218262</ele>
        <time>2011-05-08T08:41:13Z</time>
      </trkpt>
      <trkpt lat="43.72888" lon="6.97883">
        <ele>910.9865723</ele>
        <time>2011-05-08T08:41:28Z</time>
      </trkpt>
      <trkpt lat="43.72894" lon="6.97888">
        <ele>914.3510742</ele>
        <time>2011-05-08T08:41:50Z</time>
      </trkpt>
      <trkpt lat="43.72896" lon="6.97895">
        <ele>914.3510742</ele>
        <time>2011-05-08T08:41:56Z</time>
      </trkpt>
      <trkpt lat="43.72903" lon="6.97905">
        <ele>917.7155762</ele>
        <time>2011-05-08T08:42:07Z</time>
      </trkpt>
      <trkpt lat="43.72908" lon="6.97911">
        <ele>918.677002</ele>
        <time>2011-05-08T08:42:15Z</time>
      </trkpt>
      <trkpt lat="43.72915" lon="6.97912">
        <ele>920.5996094</ele>
        <time>2011-05-08T08:42:21Z</time>
      </trkpt>
      <trkpt lat="43.72928" lon="6.97907">
        <ele>925.8869629</ele>
        <time>2011-05-08T08:42:48Z</time>
      </trkpt>
      <trkpt lat="43.7294" lon="6.97901">
        <ele>929.2514648</ele>
        <time>2011-05-08T08:43:02Z</time>
      </trkpt>
      <trkpt lat="43.72939" lon="6.97882">
        <ele>932.6162109</ele>
        <time>2011-05-08T08:43:20Z</time>
      </trkpt>
      <trkpt lat="43.72949" lon="6.97887">
        <ele>938.3840332</ele>
        <time>2011-05-08T08:43:46Z</time>
      </trkpt>
      <trkpt lat="43.72949" lon="6.97879">
        <ele>940.7873535</ele>
        <time>2011-05-08T08:43:59Z</time>
      </trkpt>
      <trkpt lat="43.7295" lon="6.97885">
        <ele>942.2294922</ele>
        <time>2011-05-08T08:44:04Z</time>
      </trkpt>
      <trkpt lat="43.7296" lon="6.97891">
        <ele>944.6325684</ele>
        <time>2011-05-08T08:44:17Z</time>
      </trkpt>
      <trkpt lat="43.72966" lon="6.97895">
        <ele>947.9973145</ele>
        <time>2011-05-08T08:44:29Z</time>
      </trkpt>
      <trkpt lat="43.72976" lon="6.97909">
        <ele>950.8811035</ele>
        <time>2011-05-08T08:44:49Z</time>
      </trkpt>
      <trkpt lat="43.72977" lon="6.97922">
        <ele>952.8037109</ele>
        <time>2011-05-08T08:44:57Z</time>
      </trkpt>
      <trkpt lat="43.72981" lon="6.97935">
        <ele>957.6105957</ele>
        <time>2011-05-08T08:45:21Z</time>
      </trkpt>
      <trkpt lat="43.72989" lon="6.97914">
        <ele>960.0136719</ele>
        <time>2011-05-08T08:45:40Z</time>
      </trkpt>
      <trkpt lat="43.72993" lon="6.97896">
        <ele>963.378418</ele>
        <time>2011-05-08T08:46:05Z</time>
      </trkpt>
      <trkpt lat="43.73" lon="6.97907">
        <ele>966.262207</ele>
        <time>2011-05-08T08:46:20Z</time>
      </trkpt>
      <trkpt lat="43.73001" lon="6.97922">
        <ele>969.1462402</ele>
        <time>2011-05-08T08:46:34Z</time>
      </trkpt>
      <trkpt lat="43.73002" lon="6.97933">
        <ele>972.0302734</ele>
        <time>2011-05-08T08:46:48Z</time>
      </trkpt>
      <trkpt lat="43.73014" lon="6.97916">
        <ele>975.8754883</ele>
        <time>2011-05-08T08:47:15Z</time>
      </trkpt>
      <trkpt lat="43.73016" lon="6.97931">
        <ele>977.7980957</ele>
        <time>2011-05-08T08:47:30Z</time>
      </trkpt>
      <trkpt lat="43.73014" lon="6.97947">
        <ele>981.1628418</ele>
        <time>2011-05-08T08:47:42Z</time>
      </trkpt>
      <trkpt lat="43.73013" lon="6.97966">
        <ele>983.0852051</ele>
        <time>2011-05-08T08:47:55Z</time>
      </trkpt>
      <trkpt lat="43.73008" lon="6.97972">
        <ele>984.0466309</ele>
        <time>2011-05-08T08:48:00Z</time>
      </trkpt>
      <trkpt lat="43.73023" lon="6.97952">
        <ele>988.8535156</ele>
        <time>2011-05-08T08:48:30Z</time>
      </trkpt>
      <trkpt lat="43.73032" lon="6.97932">
        <ele>991.7373047</ele>
        <time>2011-05-08T08:48:44Z</time>
      </trkpt>
      <trkpt lat="43.73034" lon="6.97936">
        <ele>993.1791992</ele>
        <time>2011-05-08T08:48:49Z</time>
      </trkpt>
      <trkpt lat="43.73035" lon="6.97943">
        <ele>995.1018066</ele>
        <time>2011-05-08T08:48:57Z</time>
      </trkpt>
      <trkpt lat="43.73043" lon="6.9793">
        <ele>997.9858398</ele>
        <time>2011-05-08T08:49:11Z</time>
      </trkpt>
      <trkpt lat="43.73051" lon="6.979">
        <ele>999.9084473</ele>
        <time>2011-05-08T08:49:31Z</time>
      </trkpt>
      <trkpt lat="43.73064" lon="6.97892">
        <ele>1005.1958008</ele>
        <time>2011-05-08T08:49:59Z</time>
      </trkpt>
      <trkpt lat="43.73059" lon="6.97875">
        <ele>1008.5603027</ele>
        <time>2011-05-08T08:50:09Z</time>
      </trkpt>
      <trkpt lat="43.73059" lon="6.97866">
        <ele>1010.4829102</ele>
        <time>2011-05-08T08:50:19Z</time>
      </trkpt>
      <trkpt lat="43.73054" lon="6.97855">
        <ele>1011.9250488</ele>
        <time>2011-05-08T08:50:24Z</time>
      </trkpt>
      <trkpt lat="43.73054" lon="6.97842">
        <ele>1014.328125</ele>
        <time>2011-05-08T08:50:38Z</time>
      </trkpt>
      <trkpt lat="43.7306" lon="6.97837">
        <ele>1015.7702637</ele>
        <time>2011-05-08T08:50:49Z</time>
      </trkpt>
      <trkpt lat="43.73061" lon="6.97829">
        <ele>1016.7314453</ele>
        <time>2011-05-08T08:51:01Z</time>
      </trkpt>
      <trkpt lat="43.73063" lon="6.9783">
        <ele>1017.692627</ele>
        <time>2011-05-08T08:52:08Z</time>
      </trkpt>
      <trkpt lat="43.73061" lon="6.97826">
        <ele>1018.6540527</ele>
        <time>2011-05-08T08:53:41Z</time>
      </trkpt>
      <trkpt lat="43.73064" lon="6.9782">
        <ele>1018.6540527</ele>
        <time>2011-05-08T08:54:33Z</time>
      </trkpt>
      <trkpt lat="43.73062" lon="6.97826">
        <ele>1019.1347656</ele>
        <time>2011-05-08T08:55:22Z</time>
      </trkpt>
      <trkpt lat="43.73067" lon="6.97833">
        <ele>1020.0961914</ele>
        <time>2011-05-08T08:55:33Z</time>
      </trkpt>
      <trkpt lat="43.73071" lon="6.97847">
        <ele>1020.5769043</ele>
        <time>2011-05-08T08:55:46Z</time>
      </trkpt>
      <trkpt lat="43.73076" lon="6.97859">
        <ele>1021.5380859</ele>
        <time>2011-05-08T08:55:58Z</time>
      </trkpt>
      <trkpt lat="43.73081" lon="6.97868">
        <ele>1022.0187988</ele>
        <time>2011-05-08T08:56:06Z</time>
      </trkpt>
      <trkpt lat="43.73081" lon="6.97878">
        <ele>1021.5380859</ele>
        <time>2011-05-08T08:56:13Z</time>
      </trkpt>
      <trkpt lat="43.73081" lon="6.97898">
        <ele>1021.0576172</ele>
        <time>2011-05-08T08:56:26Z</time>
      </trkpt>
      <trkpt lat="43.73083" lon="6.9791">
        <ele>1020.5769043</ele>
        <time>2011-05-08T08:56:35Z</time>
      </trkpt>
      <trkpt lat="43.73081" lon="6.97926">
        <ele>1020.5769043</ele>
        <time>2011-05-08T08:56:48Z</time>
      </trkpt>
      <trkpt lat="43.73076" lon="6.97935">
        <ele>1020.0961914</ele>
        <time>2011-05-08T08:56:55Z</time>
      </trkpt>
      <trkpt lat="43.7307" lon="6.97953">
        <ele>1021.0576172</ele>
        <time>2011-05-08T08:57:09Z</time>
      </trkpt>
      <trkpt lat="43.73065" lon="6.97972">
        <ele>1022.0187988</ele>
        <time>2011-05-08T08:57:23Z</time>
      </trkpt>
      <trkpt lat="43.73067" lon="6.97982">
        <ele>1021.5380859</ele>
        <time>2011-05-08T08:57:42Z</time>
      </trkpt>
      <trkpt lat="43.73066" lon="6.97999">
        <ele>1021.0576172</ele>
        <time>2011-05-08T08:57:54Z</time>
      </trkpt>
      <trkpt lat="43.73068" lon="6.98009">
        <ele>1020.5769043</ele>
        <time>2011-05-08T08:58:00Z</time>
      </trkpt>
      <trkpt lat="43.73072" lon="6.98019">
        <ele>1019.6154785</ele>
        <time>2011-05-08T08:58:08Z</time>
      </trkpt>
      <trkpt lat="43.7307" lon="6.98025">
        <ele>1019.6154785</ele>
        <time>2011-05-08T08:58:24Z</time>
      </trkpt>
      <trkpt lat="43.73069" lon="6.98041">
        <ele>1019.1347656</ele>
        <time>2011-05-08T08:58:35Z</time>
      </trkpt>
      <trkpt lat="43.73068" lon="6.98052">
        <ele>1018.1733398</ele>
        <time>2011-05-08T08:58:43Z</time>
      </trkpt>
      <trkpt lat="43.73069" lon="6.98063">
        <ele>1017.692627</ele>
        <time>2011-05-08T08:58:49Z</time>
      </trkpt>
      <trkpt lat="43.73069" lon="6.98077">
        <ele>1015.2895508</ele>
        <time>2011-05-08T08:59:04Z</time>
      </trkpt>
      <trkpt lat="43.73068" lon="6.98094">
        <ele>1014.328125</ele>
        <time>2011-05-08T08:59:16Z</time>
      </trkpt>
      <trkpt lat="43.7307" lon="6.98102">
        <ele>1012.8862305</ele>
        <time>2011-05-08T08:59:27Z</time>
      </trkpt>
      <trkpt lat="43.73072" lon="6.98113">
        <ele>1010.4829102</ele>
        <time>2011-05-08T08:59:38Z</time>
      </trkpt>
      <trkpt lat="43.73073" lon="6.98123">
        <ele>1009.5217285</ele>
        <time>2011-05-08T08:59:46Z</time>
      </trkpt>
      <trkpt lat="43.73069" lon="6.98137">
        <ele>1007.1184082</ele>
        <time>2011-05-08T08:59:58Z</time>
      </trkpt>
      <trkpt lat="43.73067" lon="6.98154">
        <ele>1006.1569824</ele>
        <time>2011-05-08T09:00:14Z</time>
      </trkpt>
      <trkpt lat="43.73064" lon="6.9816">
        <ele>1006.1569824</ele>
        <time>2011-05-08T09:00:19Z</time>
      </trkpt>
      <trkpt lat="43.73065" lon="6.98178">
        <ele>1005.1958008</ele>
        <time>2011-05-08T09:00:28Z</time>
      </trkpt>
      <trkpt lat="43.7307" lon="6.98202">
        <ele>1002.7922363</ele>
        <time>2011-05-08T09:00:41Z</time>
      </trkpt>
      <trkpt lat="43.73064" lon="6.98227">
        <ele>1002.3115234</ele>
        <time>2011-05-08T09:00:55Z</time>
      </trkpt>
      <trkpt lat="43.73059" lon="6.98237">
        <ele>1002.3115234</ele>
        <time>2011-05-08T09:01:02Z</time>
      </trkpt>
      <trkpt lat="43.73057" lon="6.98254">
        <ele>1002.3115234</ele>
        <time>2011-05-08T09:01:14Z</time>
      </trkpt>
      <trkpt lat="43.73055" lon="6.98266">
        <ele>1002.3115234</ele>
        <time>2011-05-08T09:01:21Z</time>
      </trkpt>
      <trkpt lat="43.73053" lon="6.98275">
        <ele>1002.7922363</ele>
        <time>2011-05-08T09:01:27Z</time>
      </trkpt>
      <trkpt lat="43.73054" lon="6.98288">
        <ele>1002.3115234</ele>
        <time>2011-05-08T09:01:37Z</time>
      </trkpt>
      <trkpt lat="43.73049" lon="6.98304">
        <ele>1001.8310547</ele>
        <time>2011-05-08T09:01:48Z</time>
      </trkpt>
      <trkpt lat="43.73054" lon="6.98308">
        <ele>1002.7922363</ele>
        <time>2011-05-08T09:02:01Z</time>
      </trkpt>
      <trkpt lat="43.73044" lon="6.98311">
        <ele>1002.7922363</ele>
        <time>2011-05-08T09:02:51Z</time>
      </trkpt>
      <trkpt lat="43.73037" lon="6.98338">
        <ele>1002.7922363</ele>
        <time>2011-05-08T09:03:07Z</time>
      </trkpt>
      <trkpt lat="43.73027" lon="6.98357">
        <ele>1003.2729492</ele>
        <time>2011-05-08T09:03:22Z</time>
      </trkpt>
      <trkpt lat="43.73022" lon="6.98366">
        <ele>1004.7150879</ele>
        <time>2011-05-08T09:03:36Z</time>
      </trkpt>
      <trkpt lat="43.73025" lon="6.98371">
        <ele>1005.6765137</ele>
        <time>2011-05-08T09:04:05Z</time>
      </trkpt>
      <trkpt lat="43.73029" lon="6.98376">
        <ele>1005.6765137</ele>
        <time>2011-05-08T09:04:38Z</time>
      </trkpt>
      <trkpt lat="43.73051" lon="6.98385">
        <ele>1005.1958008</ele>
        <time>2011-05-08T09:05:19Z</time>
      </trkpt>
      <trkpt lat="43.73058" lon="6.98389">
        <ele>1005.1958008</ele>
        <time>2011-05-08T09:05:25Z</time>
      </trkpt>
      <trkpt lat="43.73066" lon="6.98395">
        <ele>1005.6765137</ele>
        <time>2011-05-08T09:05:34Z</time>
      </trkpt>
      <trkpt lat="43.73069" lon="6.98405">
        <ele>1004.2346191</ele>
        <time>2011-05-08T09:05:46Z</time>
      </trkpt>
      <trkpt lat="43.73074" lon="6.98414">
        <ele>1003.7536621</ele>
        <time>2011-05-08T09:05:55Z</time>
      </trkpt>
      <trkpt lat="43.73083" lon="6.9842">
        <ele>1001.8310547</ele>
        <time>2011-05-08T09:06:04Z</time>
      </trkpt>
      <trkpt lat="43.7309" lon="6.98426">
        <ele>999.9084473</ele>
        <time>2011-05-08T09:06:14Z</time>
      </trkpt>
      <trkpt lat="43.73094" lon="6.98434">
        <ele>998.4663086</ele>
        <time>2011-05-08T09:06:23Z</time>
      </trkpt>
      <trkpt lat="43.73099" lon="6.9844">
        <ele>997.9858398</ele>
        <time>2011-05-08T09:06:30Z</time>
      </trkpt>
      <trkpt lat="43.73104" lon="6.98446">
        <ele>997.505127</ele>
        <time>2011-05-08T09:06:39Z</time>
      </trkpt>
      <trkpt lat="43.73111" lon="6.98459">
        <ele>994.6210938</ele>
        <time>2011-05-08T09:06:54Z</time>
      </trkpt>
      <trkpt lat="43.73119" lon="6.98474">
        <ele>992.6987305</ele>
        <time>2011-05-08T09:07:07Z</time>
      </trkpt>
      <trkpt lat="43.73129" lon="6.98489">
        <ele>991.7373047</ele>
        <time>2011-05-08T09:07:21Z</time>
      </trkpt>
      <trkpt lat="43.73136" lon="6.98501">
        <ele>989.8146973</ele>
        <time>2011-05-08T09:07:33Z</time>
      </trkpt>
      <trkpt lat="43.73139" lon="6.98507">
        <ele>989.3339844</ele>
        <time>2011-05-08T09:07:38Z</time>
      </trkpt>
      <trkpt lat="43.73145" lon="6.98513">
        <ele>988.3728027</ele>
        <time>2011-05-08T09:07:45Z</time>
      </trkpt>
      <trkpt lat="43.7315" lon="6.98518">
        <ele>987.8918457</ele>
        <time>2011-05-08T09:07:51Z</time>
      </trkpt>
      <trkpt lat="43.7316" lon="6.98525">
        <ele>987.8918457</ele>
        <time>2011-05-08T09:08:02Z</time>
      </trkpt>
      <trkpt lat="43.73173" lon="6.98541">
        <ele>986.4499512</ele>
        <time>2011-05-08T09:08:16Z</time>
      </trkpt>
      <trkpt lat="43.73178" lon="6.98552">
        <ele>986.4499512</ele>
        <time>2011-05-08T09:08:25Z</time>
      </trkpt>
      <trkpt lat="43.73186" lon="6.98558">
        <ele>985.9692383</ele>
        <time>2011-05-08T09:08:34Z</time>
      </trkpt>
      <trkpt lat="43.73191" lon="6.98562">
        <ele>986.9304199</ele>
        <time>2011-05-08T09:08:40Z</time>
      </trkpt>
      <trkpt lat="43.73197" lon="6.98563">
        <ele>986.4499512</ele>
        <time>2011-05-08T09:08:49Z</time>
      </trkpt>
      <trkpt lat="43.73202" lon="6.98562">
        <ele>985.9692383</ele>
        <time>2011-05-08T09:08:55Z</time>
      </trkpt>
      <trkpt lat="43.7321" lon="6.9856">
        <ele>985.4885254</ele>
        <time>2011-05-08T09:09:05Z</time>
      </trkpt>
      <trkpt lat="43.73218" lon="6.98562">
        <ele>985.0080566</ele>
        <time>2011-05-08T09:09:17Z</time>
      </trkpt>
      <trkpt lat="43.73224" lon="6.98566">
        <ele>984.0466309</ele>
        <time>2011-05-08T09:09:28Z</time>
      </trkpt>
      <trkpt lat="43.73232" lon="6.98563">
        <ele>983.565918</ele>
        <time>2011-05-08T09:09:36Z</time>
      </trkpt>
      <trkpt lat="43.7324" lon="6.9857">
        <ele>983.0852051</ele>
        <time>2011-05-08T09:09:46Z</time>
      </trkpt>
      <trkpt lat="43.73249" lon="6.98583">
        <ele>983.0852051</ele>
        <time>2011-05-08T09:09:59Z</time>
      </trkpt>
      <trkpt lat="43.73259" lon="6.98592">
        <ele>982.6047363</ele>
        <time>2011-05-08T09:10:11Z</time>
      </trkpt>
      <trkpt lat="43.73265" lon="6.98608">
        <ele>983.0852051</ele>
        <time>2011-05-08T09:10:27Z</time>
      </trkpt>
      <trkpt lat="43.73274" lon="6.98617">
        <ele>983.0852051</ele>
        <time>2011-05-08T09:10:36Z</time>
      </trkpt>
      <trkpt lat="43.73275" lon="6.98626">
        <ele>982.6047363</ele>
        <time>2011-05-08T09:10:42Z</time>
      </trkpt>
      <trkpt lat="43.7329" lon="6.98638">
        <ele>982.6047363</ele>
        <time>2011-05-08T09:10:56Z</time>
      </trkpt>
      <trkpt lat="43.73297" lon="6.98648">
        <ele>982.6047363</ele>
        <time>2011-05-08T09:11:08Z</time>
      </trkpt>
      <trkpt lat="43.73302" lon="6.98653">
        <ele>984.5273438</ele>
        <time>2011-05-08T09:11:17Z</time>
      </trkpt>
      <trkpt lat="43.73307" lon="6.98651">
        <ele>985.9692383</ele>
        <time>2011-05-08T09:11:29Z</time>
      </trkpt>
      <trkpt lat="43.73313" lon="6.98654">
        <ele>984.5273438</ele>
        <time>2011-05-08T09:11:36Z</time>
      </trkpt>
      <trkpt lat="43.7332" lon="6.98663">
        <ele>983.0852051</ele>
        <time>2011-05-08T09:11:44Z</time>
      </trkpt>
      <trkpt lat="43.73332" lon="6.98669">
        <ele>981.6433105</ele>
        <time>2011-05-08T09:11:56Z</time>
      </trkpt>
      <trkpt lat="43.73334" lon="6.98678">
        <ele>980.201416</ele>
        <time>2011-05-08T09:12:15Z</time>
      </trkpt>
      <trkpt lat="43.73342" lon="6.98676">
        <ele>978.2788086</ele>
        <time>2011-05-08T09:12:33Z</time>
      </trkpt>
      <trkpt lat="43.73347" lon="6.98679">
        <ele>978.2788086</ele>
        <time>2011-05-08T09:12:39Z</time>
      </trkpt>
      <trkpt lat="43.73362" lon="6.9868">
        <ele>976.8369141</ele>
        <time>2011-05-08T09:12:53Z</time>
      </trkpt>
      <trkpt lat="43.73372" lon="6.98681">
        <ele>976.3562012</ele>
        <time>2011-05-08T09:13:01Z</time>
      </trkpt>
      <trkpt lat="43.73393" lon="6.9868">
        <ele>973.9528809</ele>
        <time>2011-05-08T09:13:17Z</time>
      </trkpt>
      <trkpt lat="43.73403" lon="6.98679">
        <ele>973.9528809</ele>
        <time>2011-05-08T09:13:26Z</time>
      </trkpt>
      <trkpt lat="43.73424" lon="6.98686">
        <ele>972.9916992</ele>
        <time>2011-05-08T09:13:43Z</time>
      </trkpt>
      <trkpt lat="43.73437" lon="6.98691">
        <ele>973.4724121</ele>
        <time>2011-05-08T09:13:53Z</time>
      </trkpt>
      <trkpt lat="43.73452" lon="6.98694">
        <ele>973.9528809</ele>
        <time>2011-05-08T09:14:06Z</time>
      </trkpt>
      <trkpt lat="43.73466" lon="6.98708">
        <ele>975.3947754</ele>
        <time>2011-05-08T09:14:20Z</time>
      </trkpt>
      <trkpt lat="43.73485" lon="6.98719">
        <ele>977.317627</ele>
        <time>2011-05-08T09:14:37Z</time>
      </trkpt>
      <trkpt lat="43.735" lon="6.98726">
        <ele>978.2788086</ele>
        <time>2011-05-08T09:14:50Z</time>
      </trkpt>
      <trkpt lat="43.73518" lon="6.98737">
        <ele>980.201416</ele>
        <time>2011-05-08T09:15:07Z</time>
      </trkpt>
      <trkpt lat="43.73534" lon="6.98746">
        <ele>981.1628418</ele>
        <time>2011-05-08T09:15:23Z</time>
      </trkpt>
      <trkpt lat="43.73544" lon="6.98756">
        <ele>982.1240234</ele>
        <time>2011-05-08T09:15:35Z</time>
      </trkpt>
      <trkpt lat="43.73563" lon="6.98766">
        <ele>982.6047363</ele>
        <time>2011-05-08T09:15:51Z</time>
      </trkpt>
      <trkpt lat="43.73577" lon="6.98779">
        <ele>985.0080566</ele>
        <time>2011-05-08T09:16:06Z</time>
      </trkpt>
      <trkpt lat="43.73585" lon="6.98786">
        <ele>986.4499512</ele>
        <time>2011-05-08T09:16:16Z</time>
      </trkpt>
      <trkpt lat="43.736" lon="6.98803">
        <ele>989.8146973</ele>
        <time>2011-05-08T09:16:35Z</time>
      </trkpt>
      <trkpt lat="43.73603" lon="6.98816">
        <ele>991.2565918</ele>
        <time>2011-05-08T09:16:47Z</time>
      </trkpt>
      <trkpt lat="43.73606" lon="6.98827">
        <ele>992.2180176</ele>
        <time>2011-05-08T09:17:16Z</time>
      </trkpt>
      <trkpt lat="43.73613" lon="6.9884">
        <ele>994.140625</ele>
        <time>2011-05-08T09:17:28Z</time>
      </trkpt>
      <trkpt lat="43.7362" lon="6.98849">
        <ele>996.5439453</ele>
        <time>2011-05-08T09:17:40Z</time>
      </trkpt>
      <trkpt lat="43.73626" lon="6.98857">
        <ele>996.0632324</ele>
        <time>2011-05-08T09:17:54Z</time>
      </trkpt>
      <trkpt lat="43.73631" lon="6.98862">
        <ele>997.0244141</ele>
        <time>2011-05-08T09:18:02Z</time>
      </trkpt>
      <trkpt lat="43.73636" lon="6.98875">
        <ele>998.4663086</ele>
        <time>2011-05-08T09:18:19Z</time>
      </trkpt>
      <trkpt lat="43.73646" lon="6.98883">
        <ele>999.9084473</ele>
        <time>2011-05-08T09:18:48Z</time>
      </trkpt>
      <trkpt lat="43.73651" lon="6.98886">
        <ele>999.4277344</ele>
        <time>2011-05-08T09:18:59Z</time>
      </trkpt>
      <trkpt lat="43.73665" lon="6.98888">
        <ele>998.4663086</ele>
        <time>2011-05-08T09:19:12Z</time>
      </trkpt>
      <trkpt lat="43.73681" lon="6.98892">
        <ele>997.505127</ele>
        <time>2011-05-08T09:19:25Z</time>
      </trkpt>
      <trkpt lat="43.73694" lon="6.98904">
        <ele>997.0244141</ele>
        <time>2011-05-08T09:19:38Z</time>
      </trkpt>
      <trkpt lat="43.7371" lon="6.98914">
        <ele>996.0632324</ele>
        <time>2011-05-08T09:19:55Z</time>
      </trkpt>
      <trkpt lat="43.73719" lon="6.98923">
        <ele>997.0244141</ele>
        <time>2011-05-08T09:20:12Z</time>
      </trkpt>
      <trkpt lat="43.73724" lon="6.98926">
        <ele>997.0244141</ele>
        <time>2011-05-08T09:20:22Z</time>
      </trkpt>
      <trkpt lat="43.73733" lon="6.98929">
        <ele>995.1018066</ele>
        <time>2011-05-08T09:20:35Z</time>
      </trkpt>
      <trkpt lat="43.73744" lon="6.98932">
        <ele>993.1791992</ele>
        <time>2011-05-08T09:20:46Z</time>
      </trkpt>
      <trkpt lat="43.73759" lon="6.98939">
        <ele>992.2180176</ele>
        <time>2011-05-08T09:21:17Z</time>
      </trkpt>
      <trkpt lat="43.73764" lon="6.98943">
        <ele>992.6987305</ele>
        <time>2011-05-08T09:21:27Z</time>
      </trkpt>
      <trkpt lat="43.7377" lon="6.98947">
        <ele>991.2565918</ele>
        <time>2011-05-08T09:21:32Z</time>
      </trkpt>
      <trkpt lat="43.73784" lon="6.98954">
        <ele>989.8146973</ele>
        <time>2011-05-08T09:22:10Z</time>
      </trkpt>
      <trkpt lat="43.73793" lon="6.98953">
        <ele>987.4111328</ele>
        <time>2011-05-08T09:22:18Z</time>
      </trkpt>
      <trkpt lat="43.73798" lon="6.98954">
        <ele>986.9304199</ele>
        <time>2011-05-08T09:22:23Z</time>
      </trkpt>
      <trkpt lat="43.73812" lon="6.98959">
        <ele>986.4499512</ele>
        <time>2011-05-08T09:22:37Z</time>
      </trkpt>
      <trkpt lat="43.73822" lon="6.98952">
        <ele>985.0080566</ele>
        <time>2011-05-08T09:23:23Z</time>
      </trkpt>
      <trkpt lat="43.7383" lon="6.98952">
        <ele>981.6433105</ele>
        <time>2011-05-08T09:23:41Z</time>
      </trkpt>
      <trkpt lat="43.73842" lon="6.98952">
        <ele>978.2788086</ele>
        <time>2011-05-08T09:23:53Z</time>
      </trkpt>
      <trkpt lat="43.73848" lon="6.98953">
        <ele>977.7980957</ele>
        <time>2011-05-08T09:24:03Z</time>
      </trkpt>
      <trkpt lat="43.73854" lon="6.98954">
        <ele>976.8369141</ele>
        <time>2011-05-08T09:24:16Z</time>
      </trkpt>
      <trkpt lat="43.73858" lon="6.98962">
        <ele>976.3562012</ele>
        <time>2011-05-08T09:24:33Z</time>
      </trkpt>
      <trkpt lat="43.73863" lon="6.98962">
        <ele>975.3947754</ele>
        <time>2011-05-08T09:24:46Z</time>
      </trkpt>
      <trkpt lat="43.73867" lon="6.98952">
        <ele>974.9143066</ele>
        <time>2011-05-08T09:25:35Z</time>
      </trkpt>
      <trkpt lat="43.73891" lon="6.98964">
        <ele>972.5109863</ele>
        <time>2011-05-08T09:26:57Z</time>
      </trkpt>
      <trkpt lat="43.73897" lon="6.98963">
        <ele>971.5493164</ele>
        <time>2011-05-08T09:27:09Z</time>
      </trkpt>
      <trkpt lat="43.73857" lon="6.98953">
        <ele>976.8369141</ele>
        <time>2011-05-08T09:30:55Z</time>
      </trkpt>
      <trkpt lat="43.73838" lon="6.98954">
        <ele>979.2399902</ele>
        <time>2011-05-08T09:32:31Z</time>
      </trkpt>
      <trkpt lat="43.73819" lon="6.98945">
        <ele>985.0080566</ele>
        <time>2011-05-08T09:33:06Z</time>
      </trkpt>
      <trkpt lat="43.73803" lon="6.98953">
        <ele>987.8918457</ele>
        <time>2011-05-08T09:33:34Z</time>
      </trkpt>
      <trkpt lat="43.73802" lon="6.98951">
        <ele>987.8918457</ele>
        <time>2011-05-08T09:34:13Z</time>
      </trkpt>
      <trkpt lat="43.738" lon="6.98943">
        <ele>988.8535156</ele>
        <time>2011-05-08T09:34:30Z</time>
      </trkpt>
      <trkpt lat="43.73794" lon="6.98943">
        <ele>989.8146973</ele>
        <time>2011-05-08T09:34:39Z</time>
      </trkpt>
      <trkpt lat="43.73746" lon="6.98918">
        <ele>998.9470215</ele>
        <time>2011-05-08T09:36:18Z</time>
      </trkpt>
      <trkpt lat="43.73737" lon="6.98921">
        <ele>998.4663086</ele>
        <time>2011-05-08T09:36:35Z</time>
      </trkpt>
      <trkpt lat="43.7373" lon="6.98914">
        <ele>997.9858398</ele>
        <time>2011-05-08T09:36:48Z</time>
      </trkpt>
      <trkpt lat="43.73724" lon="6.98907">
        <ele>997.505127</ele>
        <time>2011-05-08T09:37:02Z</time>
      </trkpt>
      <trkpt lat="43.73704" lon="6.98896">
        <ele>998.9470215</ele>
        <time>2011-05-08T09:37:50Z</time>
      </trkpt>
      <trkpt lat="43.73698" lon="6.98893">
        <ele>998.9470215</ele>
        <time>2011-05-08T09:38:04Z</time>
      </trkpt>
      <trkpt lat="43.73691" lon="6.98889">
        <ele>998.4663086</ele>
        <time>2011-05-08T09:38:15Z</time>
      </trkpt>
      <trkpt lat="43.73675" lon="6.98888">
        <ele>999.9084473</ele>
        <time>2011-05-08T09:38:29Z</time>
      </trkpt>
      <trkpt lat="43.73665" lon="6.98887">
        <ele>1001.3503418</ele>
        <time>2011-05-08T09:38:40Z</time>
      </trkpt>
      <trkpt lat="43.73655" lon="6.98883">
        <ele>1002.3115234</ele>
        <time>2011-05-08T09:39:02Z</time>
      </trkpt>
      <trkpt lat="43.7365" lon="6.98881">
        <ele>1001.8310547</ele>
        <time>2011-05-08T09:39:15Z</time>
      </trkpt>
      <trkpt lat="43.73639" lon="6.98871">
        <ele>1000.8696289</ele>
        <time>2011-05-08T09:39:30Z</time>
      </trkpt>
      <trkpt lat="43.73634" lon="6.98867">
        <ele>1000.8696289</ele>
        <time>2011-05-08T09:39:45Z</time>
      </trkpt>
      <trkpt lat="43.7364" lon="6.98863">
        <ele>1002.3115234</ele>
        <time>2011-05-08T09:40:02Z</time>
      </trkpt>
      <trkpt lat="43.73635" lon="6.9886">
        <ele>1000.8696289</ele>
        <time>2011-05-08T09:41:40Z</time>
      </trkpt>
      <trkpt lat="43.73625" lon="6.98852">
        <ele>998.9470215</ele>
        <time>2011-05-08T09:42:03Z</time>
      </trkpt>
      <trkpt lat="43.73617" lon="6.98843">
        <ele>997.0244141</ele>
        <time>2011-05-08T09:42:23Z</time>
      </trkpt>
      <trkpt lat="43.73614" lon="6.98836">
        <ele>997.0244141</ele>
        <time>2011-05-08T09:42:57Z</time>
      </trkpt>
      <trkpt lat="43.7361" lon="6.98832">
        <ele>995.5825195</ele>
        <time>2011-05-08T09:43:13Z</time>
      </trkpt>
      <trkpt lat="43.73606" lon="6.98828">
        <ele>995.1018066</ele>
        <time>2011-05-08T09:43:27Z</time>
      </trkpt>
      <trkpt lat="43.73603" lon="6.9882">
        <ele>994.6210938</ele>
        <time>2011-05-08T09:43:38Z</time>
      </trkpt>
      <trkpt lat="43.73596" lon="6.98813">
        <ele>993.1791992</ele>
        <time>2011-05-08T09:43:50Z</time>
      </trkpt>
      <trkpt lat="43.73598" lon="6.98805">
        <ele>993.6599121</ele>
        <time>2011-05-08T09:44:00Z</time>
      </trkpt>
      <trkpt lat="43.73591" lon="6.98796">
        <ele>991.7373047</ele>
        <time>2011-05-08T09:44:11Z</time>
      </trkpt>
      <trkpt lat="43.73582" lon="6.98779">
        <ele>989.3339844</ele>
        <time>2011-05-08T09:44:25Z</time>
      </trkpt>
      <trkpt lat="43.73572" lon="6.9877">
        <ele>986.9304199</ele>
        <time>2011-05-08T09:44:41Z</time>
      </trkpt>
      <trkpt lat="43.73557" lon="6.98761">
        <ele>985.0080566</ele>
        <time>2011-05-08T09:44:57Z</time>
      </trkpt>
      <trkpt lat="43.73542" lon="6.98751">
        <ele>985.0080566</ele>
        <time>2011-05-08T09:45:11Z</time>
      </trkpt>
      <trkpt lat="43.73536" lon="6.98748">
        <ele>985.0080566</ele>
        <time>2011-05-08T09:45:24Z</time>
      </trkpt>
      <trkpt lat="43.73531" lon="6.98742">
        <ele>984.0466309</ele>
        <time>2011-05-08T09:45:28Z</time>
      </trkpt>
      <trkpt lat="43.73513" lon="6.98733">
        <ele>983.0852051</ele>
        <time>2011-05-08T09:45:44Z</time>
      </trkpt>
      <trkpt lat="43.73498" lon="6.98725">
        <ele>982.6047363</ele>
        <time>2011-05-08T09:46:00Z</time>
      </trkpt>
      <trkpt lat="43.73486" lon="6.98719">
        <ele>982.1240234</ele>
        <time>2011-05-08T09:46:14Z</time>
      </trkpt>
      <trkpt lat="43.73467" lon="6.98709">
        <ele>981.1628418</ele>
        <time>2011-05-08T09:46:31Z</time>
      </trkpt>
      <trkpt lat="43.73449" lon="6.98695">
        <ele>979.2399902</ele>
        <time>2011-05-08T09:46:48Z</time>
      </trkpt>
      <trkpt lat="43.73434" lon="6.98686">
        <ele>977.7980957</ele>
        <time>2011-05-08T09:47:01Z</time>
      </trkpt>
      <trkpt lat="43.73418" lon="6.98679">
        <ele>976.8369141</ele>
        <time>2011-05-08T09:47:16Z</time>
      </trkpt>
      <trkpt lat="43.73405" lon="6.98676">
        <ele>976.3562012</ele>
        <time>2011-05-08T09:47:28Z</time>
      </trkpt>
      <trkpt lat="43.73386" lon="6.98675">
        <ele>978.2788086</ele>
        <time>2011-05-08T09:47:46Z</time>
      </trkpt>
      <trkpt lat="43.73374" lon="6.98679">
        <ele>980.201416</ele>
        <time>2011-05-08T09:47:59Z</time>
      </trkpt>
      <trkpt lat="43.73361" lon="6.9868">
        <ele>981.1628418</ele>
        <time>2011-05-08T09:48:12Z</time>
      </trkpt>
      <trkpt lat="43.7335" lon="6.98678">
        <ele>982.1240234</ele>
        <time>2011-05-08T09:48:24Z</time>
      </trkpt>
      <trkpt lat="43.73343" lon="6.98676">
        <ele>983.565918</ele>
        <time>2011-05-08T09:48:33Z</time>
      </trkpt>
      <trkpt lat="43.73333" lon="6.98675">
        <ele>984.5273438</ele>
        <time>2011-05-08T09:48:46Z</time>
      </trkpt>
      <trkpt lat="43.73328" lon="6.98675">
        <ele>985.4885254</ele>
        <time>2011-05-08T09:48:53Z</time>
      </trkpt>
      <trkpt lat="43.73313" lon="6.98671">
        <ele>989.3339844</ele>
        <time>2011-05-08T09:49:08Z</time>
      </trkpt>
      <trkpt lat="43.73304" lon="6.98666">
        <ele>990.7758789</ele>
        <time>2011-05-08T09:49:19Z</time>
      </trkpt>
      <trkpt lat="43.73299" lon="6.98656">
        <ele>991.7373047</ele>
        <time>2011-05-08T09:49:31Z</time>
      </trkpt>
      <trkpt lat="43.73292" lon="6.98641">
        <ele>989.3339844</ele>
        <time>2011-05-08T09:49:44Z</time>
      </trkpt>
      <trkpt lat="43.73282" lon="6.9863">
        <ele>988.3728027</ele>
        <time>2011-05-08T09:49:56Z</time>
      </trkpt>
      <trkpt lat="43.73267" lon="6.98618">
        <ele>990.2954102</ele>
        <time>2011-05-08T09:50:11Z</time>
      </trkpt>
      <trkpt lat="43.73256" lon="6.98608">
        <ele>990.2954102</ele>
        <time>2011-05-08T09:50:24Z</time>
      </trkpt>
      <trkpt lat="43.73248" lon="6.98594">
        <ele>989.8146973</ele>
        <time>2011-05-08T09:50:37Z</time>
      </trkpt>
      <trkpt lat="43.73241" lon="6.98577">
        <ele>989.3339844</ele>
        <time>2011-05-08T09:50:52Z</time>
      </trkpt>
      <trkpt lat="43.73232" lon="6.98563">
        <ele>990.2954102</ele>
        <time>2011-05-08T09:51:03Z</time>
      </trkpt>
      <trkpt lat="43.73227" lon="6.98558">
        <ele>990.2954102</ele>
        <time>2011-05-08T09:51:13Z</time>
      </trkpt>
      <trkpt lat="43.73221" lon="6.9854">
        <ele>989.8146973</ele>
        <time>2011-05-08T09:51:27Z</time>
      </trkpt>
      <trkpt lat="43.73213" lon="6.98522">
        <ele>988.3728027</ele>
        <time>2011-05-08T09:51:41Z</time>
      </trkpt>
      <trkpt lat="43.73211" lon="6.98514">
        <ele>988.3728027</ele>
        <time>2011-05-08T09:51:55Z</time>
      </trkpt>
      <trkpt lat="43.73208" lon="6.98506">
        <ele>988.3728027</ele>
        <time>2011-05-08T09:52:08Z</time>
      </trkpt>
      <trkpt lat="43.73204" lon="6.98488">
        <ele>986.9304199</ele>
        <time>2011-05-08T09:52:24Z</time>
      </trkpt>
      <trkpt lat="43.732" lon="6.98466">
        <ele>985.9692383</ele>
        <time>2011-05-08T09:52:40Z</time>
      </trkpt>
      <trkpt lat="43.73197" lon="6.98454">
        <ele>986.9304199</ele>
        <time>2011-05-08T09:52:50Z</time>
      </trkpt>
      <trkpt lat="43.73193" lon="6.98434">
        <ele>989.3339844</ele>
        <time>2011-05-08T09:53:14Z</time>
      </trkpt>
      <trkpt lat="43.73197" lon="6.98415">
        <ele>989.3339844</ele>
        <time>2011-05-08T09:53:27Z</time>
      </trkpt>
      <trkpt lat="43.73198" lon="6.98398">
        <ele>987.4111328</ele>
        <time>2011-05-08T09:53:40Z</time>
      </trkpt>
      <trkpt lat="43.73202" lon="6.98389">
        <ele>986.4499512</ele>
        <time>2011-05-08T09:53:53Z</time>
      </trkpt>
      <trkpt lat="43.73212" lon="6.98375">
        <ele>984.0466309</ele>
        <time>2011-05-08T09:54:12Z</time>
      </trkpt>
      <trkpt lat="43.73216" lon="6.98367">
        <ele>984.5273438</ele>
        <time>2011-05-08T09:54:22Z</time>
      </trkpt>
      <trkpt lat="43.73217" lon="6.98349">
        <ele>984.5273438</ele>
        <time>2011-05-08T09:54:41Z</time>
      </trkpt>
      <trkpt lat="43.7322" lon="6.98334">
        <ele>985.4885254</ele>
        <time>2011-05-08T09:54:58Z</time>
      </trkpt>
      <trkpt lat="43.73225" lon="6.9832">
        <ele>986.4499512</ele>
        <time>2011-05-08T09:55:11Z</time>
      </trkpt>
      <trkpt lat="43.73229" lon="6.98313">
        <ele>988.8535156</ele>
        <time>2011-05-08T09:55:26Z</time>
      </trkpt>
      <trkpt lat="43.73228" lon="6.98298">
        <ele>990.7758789</ele>
        <time>2011-05-08T09:55:41Z</time>
      </trkpt>
      <trkpt lat="43.73228" lon="6.98287">
        <ele>993.1791992</ele>
        <time>2011-05-08T09:55:52Z</time>
      </trkpt>
      <trkpt lat="43.73225" lon="6.98274">
        <ele>994.140625</ele>
        <time>2011-05-08T09:56:05Z</time>
      </trkpt>
      <trkpt lat="43.73222" lon="6.98261">
        <ele>995.1018066</ele>
        <time>2011-05-08T09:56:15Z</time>
      </trkpt>
      <trkpt lat="43.73225" lon="6.98246">
        <ele>996.5439453</ele>
        <time>2011-05-08T09:56:28Z</time>
      </trkpt>
      <trkpt lat="43.73227" lon="6.98235">
        <ele>997.505127</ele>
        <time>2011-05-08T09:56:52Z</time>
      </trkpt>
      <trkpt lat="43.73231" lon="6.98229">
        <ele>997.9858398</ele>
        <time>2011-05-08T09:57:11Z</time>
      </trkpt>
      <trkpt lat="43.73238" lon="6.98215">
        <ele>997.9858398</ele>
        <time>2011-05-08T09:57:25Z</time>
      </trkpt>
      <trkpt lat="43.7324" lon="6.98189">
        <ele>997.9858398</ele>
        <time>2011-05-08T09:57:49Z</time>
      </trkpt>
      <trkpt lat="43.73234" lon="6.98168">
        <ele>1001.3503418</ele>
        <time>2011-05-08T09:58:13Z</time>
      </trkpt>
      <trkpt lat="43.73229" lon="6.98154">
        <ele>1004.2346191</ele>
        <time>2011-05-08T09:58:29Z</time>
      </trkpt>
      <trkpt lat="43.73224" lon="6.98138">
        <ele>1006.6376953</ele>
        <time>2011-05-08T09:58:47Z</time>
      </trkpt>
      <trkpt lat="43.7322" lon="6.98131">
        <ele>1009.5217285</ele>
        <time>2011-05-08T09:58:58Z</time>
      </trkpt>
      <trkpt lat="43.73217" lon="6.98122">
        <ele>1010.963623</ele>
        <time>2011-05-08T09:59:11Z</time>
      </trkpt>
      <trkpt lat="43.73212" lon="6.98106">
        <ele>1012.8862305</ele>
        <time>2011-05-08T09:59:35Z</time>
      </trkpt>
      <trkpt lat="43.73208" lon="6.98092">
        <ele>1014.328125</ele>
        <time>2011-05-08T09:59:48Z</time>
      </trkpt>
      <trkpt lat="43.732" lon="6.98072">
        <ele>1015.7702637</ele>
        <time>2011-05-08T10:00:04Z</time>
      </trkpt>
      <trkpt lat="43.73193" lon="6.98049">
        <ele>1017.2121582</ele>
        <time>2011-05-08T10:00:21Z</time>
      </trkpt>
      <trkpt lat="43.73186" lon="6.98039">
        <ele>1018.6540527</ele>
        <time>2011-05-08T10:00:31Z</time>
      </trkpt>
      <trkpt lat="43.73184" lon="6.98033">
        <ele>1019.6154785</ele>
        <time>2011-05-08T10:00:36Z</time>
      </trkpt>
      <trkpt lat="43.73186" lon="6.98023">
        <ele>1020.0961914</ele>
        <time>2011-05-08T10:00:45Z</time>
      </trkpt>
      <trkpt lat="43.73183" lon="6.98002">
        <ele>1022.0187988</ele>
        <time>2011-05-08T10:00:59Z</time>
      </trkpt>
      <trkpt lat="43.73174" lon="6.97991">
        <ele>1023.4609375</ele>
        <time>2011-05-08T10:01:12Z</time>
      </trkpt>
      <trkpt lat="43.73169" lon="6.97984">
        <ele>1023.9414063</ele>
        <time>2011-05-08T10:01:21Z</time>
      </trkpt>
      <trkpt lat="43.73162" lon="6.97979">
        <ele>1023.9414063</ele>
        <time>2011-05-08T10:01:28Z</time>
      </trkpt>
      <trkpt lat="43.73145" lon="6.97961">
        <ele>1024.902832</ele>
        <time>2011-05-08T10:01:45Z</time>
      </trkpt>
      <trkpt lat="43.73134" lon="6.97968">
        <ele>1024.902832</ele>
        <time>2011-05-08T10:01:58Z</time>
      </trkpt>
      <trkpt lat="43.73121" lon="6.97974">
        <ele>1025.3833008</ele>
        <time>2011-05-08T10:02:13Z</time>
      </trkpt>
      <trkpt lat="43.73107" lon="6.97987">
        <ele>1026.8254395</ele>
        <time>2011-05-08T10:02:29Z</time>
      </trkpt>
      <trkpt lat="43.73097" lon="6.97985">
        <ele>1027.3061523</ele>
        <time>2011-05-08T10:02:40Z</time>
      </trkpt>
      <trkpt lat="43.73086" lon="6.97978">
        <ele>1029.7092285</ele>
        <time>2011-05-08T10:02:51Z</time>
      </trkpt>
      <trkpt lat="43.73083" lon="6.97969">
        <ele>1030.6706543</ele>
        <time>2011-05-08T10:03:01Z</time>
      </trkpt>
      <trkpt lat="43.73085" lon="6.9796">
        <ele>1030.1899414</ele>
        <time>2011-05-08T10:03:09Z</time>
      </trkpt>
      <trkpt lat="43.73087" lon="6.97953">
        <ele>1031.6318359</ele>
        <time>2011-05-08T10:03:19Z</time>
      </trkpt>
      <trkpt lat="43.73088" lon="6.97938">
        <ele>1031.6318359</ele>
        <time>2011-05-08T10:03:34Z</time>
      </trkpt>
      <trkpt lat="43.73086" lon="6.97931">
        <ele>1032.5932617</ele>
        <time>2011-05-08T10:03:46Z</time>
      </trkpt>
      <trkpt lat="43.73085" lon="6.97923">
        <ele>1031.6318359</ele>
        <time>2011-05-08T10:04:03Z</time>
      </trkpt>
      <trkpt lat="43.73082" lon="6.97915">
        <ele>1030.6706543</ele>
        <time>2011-05-08T10:04:13Z</time>
      </trkpt>
      <trkpt lat="43.73081" lon="6.97906">
        <ele>1030.6706543</ele>
        <time>2011-05-08T10:04:20Z</time>
      </trkpt>
      <trkpt lat="43.73079" lon="6.97896">
        <ele>1030.6706543</ele>
        <time>2011-05-08T10:04:27Z</time>
      </trkpt>
      <trkpt lat="43.7308" lon="6.97874">
        <ele>1031.6318359</ele>
        <time>2011-05-08T10:04:45Z</time>
      </trkpt>
      <trkpt lat="43.7308" lon="6.97865">
        <ele>1032.1125488</ele>
        <time>2011-05-08T10:05:00Z</time>
      </trkpt>
      <trkpt lat="43.73068" lon="6.97831">
        <ele>1029.7092285</ele>
        <time>2011-05-08T10:05:20Z</time>
      </trkpt>
      <trkpt lat="43.73062" lon="6.97824">
        <ele>1029.7092285</ele>
        <time>2011-05-08T10:05:26Z</time>
      </trkpt>
      <trkpt lat="43.73063" lon="6.97809">
        <ele>1029.2285156</ele>
        <time>2011-05-08T10:05:38Z</time>
      </trkpt>
      <trkpt lat="43.73057" lon="6.97797">
        <ele>1029.7092285</ele>
        <time>2011-05-08T10:05:49Z</time>
      </trkpt>
      <trkpt lat="43.7305" lon="6.97777">
        <ele>1030.6706543</ele>
        <time>2011-05-08T10:06:07Z</time>
      </trkpt>
      <trkpt lat="43.73047" lon="6.97761">
        <ele>1031.1513672</ele>
        <time>2011-05-08T10:06:22Z</time>
      </trkpt>
      <trkpt lat="43.73042" lon="6.97756">
        <ele>1031.1513672</ele>
        <time>2011-05-08T10:06:29Z</time>
      </trkpt>
      <trkpt lat="43.73043" lon="6.97733">
        <ele>1032.5932617</ele>
        <time>2011-05-08T10:06:45Z</time>
      </trkpt>
      <trkpt lat="43.73048" lon="6.9772">
        <ele>1032.1125488</ele>
        <time>2011-05-08T10:06:56Z</time>
      </trkpt>
      <trkpt lat="43.73055" lon="6.97699">
        <ele>1030.6706543</ele>
        <time>2011-05-08T10:07:12Z</time>
      </trkpt>
      <trkpt lat="43.73059" lon="6.97674">
        <ele>1031.6318359</ele>
        <time>2011-05-08T10:07:29Z</time>
      </trkpt>
      <trkpt lat="43.73061" lon="6.97646">
        <ele>1033.5544434</ele>
        <time>2011-05-08T10:07:48Z</time>
      </trkpt>
      <trkpt lat="43.73061" lon="6.97633">
        <ele>1034.5158691</ele>
        <time>2011-05-08T10:07:59Z</time>
      </trkpt>
      <trkpt lat="43.73057" lon="6.97606">
        <ele>1033.5544434</ele>
        <time>2011-05-08T10:08:17Z</time>
      </trkpt>
      <trkpt lat="43.73062" lon="6.9759">
        <ele>1033.5544434</ele>
        <time>2011-05-08T10:08:32Z</time>
      </trkpt>
      <trkpt lat="43.73058" lon="6.97584">
        <ele>1033.5544434</ele>
        <time>2011-05-08T10:08:40Z</time>
      </trkpt>
      <trkpt lat="43.73052" lon="6.97577">
        <ele>1030.6706543</ele>
        <time>2011-05-08T10:08:47Z</time>
      </trkpt>
      <trkpt lat="43.73047" lon="6.97567">
        <ele>1030.1899414</ele>
        <time>2011-05-08T10:08:58Z</time>
      </trkpt>
      <trkpt lat="43.73057" lon="6.97546">
        <ele>1028.7480469</ele>
        <time>2011-05-08T10:09:18Z</time>
      </trkpt>
      <trkpt lat="43.73067" lon="6.97526">
        <ele>1028.267334</ele>
        <time>2011-05-08T10:09:32Z</time>
      </trkpt>
      <trkpt lat="43.73074" lon="6.97505">
        <ele>1027.7866211</ele>
        <time>2011-05-08T10:09:46Z</time>
      </trkpt>
      <trkpt lat="43.73073" lon="6.97497">
        <ele>1027.7866211</ele>
        <time>2011-05-08T10:09:52Z</time>
      </trkpt>
      <trkpt lat="43.73066" lon="6.97492">
        <ele>1026.8254395</ele>
        <time>2011-05-08T10:10:00Z</time>
      </trkpt>
      <trkpt lat="43.73064" lon="6.97485">
        <ele>1026.3447266</ele>
        <time>2011-05-08T10:10:05Z</time>
      </trkpt>
      <trkpt lat="43.73076" lon="6.97465">
        <ele>1027.7866211</ele>
        <time>2011-05-08T10:10:21Z</time>
      </trkpt>
      <trkpt lat="43.73087" lon="6.97446">
        <ele>1028.7480469</ele>
        <time>2011-05-08T10:10:36Z</time>
      </trkpt>
      <trkpt lat="43.73099" lon="6.9743">
        <ele>1029.7092285</ele>
        <time>2011-05-08T10:10:50Z</time>
      </trkpt>
      <trkpt lat="43.73106" lon="6.97422">
        <ele>1030.1899414</ele>
        <time>2011-05-08T10:11:00Z</time>
      </trkpt>
      <trkpt lat="43.73119" lon="6.97404">
        <ele>1030.6706543</ele>
        <time>2011-05-08T10:11:18Z</time>
      </trkpt>
      <trkpt lat="43.73125" lon="6.97379">
        <ele>1030.6706543</ele>
        <time>2011-05-08T10:11:35Z</time>
      </trkpt>
      <trkpt lat="43.73126" lon="6.97354">
        <ele>1030.6706543</ele>
        <time>2011-05-08T10:11:50Z</time>
      </trkpt>
      <trkpt lat="43.73127" lon="6.97342">
        <ele>1031.6318359</ele>
        <time>2011-05-08T10:11:59Z</time>
      </trkpt>
      <trkpt lat="43.73134" lon="6.9732">
        <ele>1033.5544434</ele>
        <time>2011-05-08T10:12:16Z</time>
      </trkpt>
      <trkpt lat="43.73137" lon="6.97312">
        <ele>1032.1125488</ele>
        <time>2011-05-08T10:12:22Z</time>
      </trkpt>
      <trkpt lat="43.73136" lon="6.97299">
        <ele>1033.0737305</ele>
        <time>2011-05-08T10:12:32Z</time>
      </trkpt>
      <trkpt lat="43.73135" lon="6.9728">
        <ele>1032.5932617</ele>
        <time>2011-05-08T10:12:45Z</time>
      </trkpt>
      <trkpt lat="43.73142" lon="6.9726">
        <ele>1032.5932617</ele>
        <time>2011-05-08T10:13:00Z</time>
      </trkpt>
      <trkpt lat="43.73148" lon="6.97239">
        <ele>1032.1125488</ele>
        <time>2011-05-08T10:13:13Z</time>
      </trkpt>
      <trkpt lat="43.73155" lon="6.97226">
        <ele>1033.0737305</ele>
        <time>2011-05-08T10:13:24Z</time>
      </trkpt>
      <trkpt lat="43.73162" lon="6.9721">
        <ele>1033.0737305</ele>
        <time>2011-05-08T10:13:38Z</time>
      </trkpt>
      <trkpt lat="43.73165" lon="6.97198">
        <ele>1033.0737305</ele>
        <time>2011-05-08T10:13:50Z</time>
      </trkpt>
      <trkpt lat="43.73165" lon="6.97199">
        <ele>1033.0737305</ele>
        <time>2011-05-08T10:14:46Z</time>
      </trkpt>
      <trkpt lat="43.7316" lon="6.97196">
        <ele>1034.0351563</ele>
        <time>2011-05-08T10:14:58Z</time>
      </trkpt>
      <trkpt lat="43.73141" lon="6.97186">
        <ele>1032.5932617</ele>
        <time>2011-05-08T10:15:17Z</time>
      </trkpt>
      <trkpt lat="43.73127" lon="6.97182">
        <ele>1031.1513672</ele>
        <time>2011-05-08T10:15:29Z</time>
      </trkpt>
      <trkpt lat="43.73106" lon="6.97171">
        <ele>1030.6706543</ele>
        <time>2011-05-08T10:15:46Z</time>
      </trkpt>
      <trkpt lat="43.7309" lon="6.97169">
        <ele>1031.6318359</ele>
        <time>2011-05-08T10:16:02Z</time>
      </trkpt>
      <trkpt lat="43.73077" lon="6.97164">
        <ele>1033.5544434</ele>
        <time>2011-05-08T10:16:14Z</time>
      </trkpt>
      <trkpt lat="43.73064" lon="6.97159">
        <ele>1033.0737305</ele>
        <time>2011-05-08T10:16:26Z</time>
      </trkpt>
      <trkpt lat="43.73047" lon="6.97152">
        <ele>1033.5544434</ele>
        <time>2011-05-08T10:16:41Z</time>
      </trkpt>
      <trkpt lat="43.73027" lon="6.97142">
        <ele>1036.4387207</ele>
        <time>2011-05-08T10:16:57Z</time>
      </trkpt>
      <trkpt lat="43.73012" lon="6.97126">
        <ele>1034.5158691</ele>
        <time>2011-05-08T10:17:11Z</time>
      </trkpt>
      <trkpt lat="43.73" lon="6.97113">
        <ele>1034.0351563</ele>
        <time>2011-05-08T10:17:25Z</time>
      </trkpt>
      <trkpt lat="43.72986" lon="6.97105">
        <ele>1032.5932617</ele>
        <time>2011-05-08T10:17:41Z</time>
      </trkpt>
      <trkpt lat="43.72989" lon="6.97112">
        <ele>1032.5932617</ele>
        <time>2011-05-08T10:18:22Z</time>
      </trkpt>
      <trkpt lat="43.72998" lon="6.97118">
        <ele>1028.267334</ele>
        <time>2011-05-08T10:18:35Z</time>
      </trkpt>
      <trkpt lat="43.73002" lon="6.97128">
        <ele>1025.8640137</ele>
        <time>2011-05-08T10:18:48Z</time>
      </trkpt>
      <trkpt lat="43.72994" lon="6.97127">
        <ele>1025.8640137</ele>
        <time>2011-05-08T10:19:02Z</time>
      </trkpt>
      <trkpt lat="43.72988" lon="6.97121">
        <ele>1024.902832</ele>
        <time>2011-05-08T10:19:09Z</time>
      </trkpt>
      <trkpt lat="43.72991" lon="6.97127">
        <ele>1022.9802246</ele>
        <time>2011-05-08T10:19:14Z</time>
      </trkpt>
      <trkpt lat="43.72993" lon="6.97142">
        <ele>1021.0576172</ele>
        <time>2011-05-08T10:19:25Z</time>
      </trkpt>
      <trkpt lat="43.72997" lon="6.9716">
        <ele>1018.1733398</ele>
        <time>2011-05-08T10:19:40Z</time>
      </trkpt>
      <trkpt lat="43.72999" lon="6.97172">
        <ele>1015.2895508</ele>
        <time>2011-05-08T10:19:51Z</time>
      </trkpt>
      <trkpt lat="43.72997" lon="6.97194">
        <ele>1011.9250488</ele>
        <time>2011-05-08T10:20:10Z</time>
      </trkpt>
      <trkpt lat="43.72987" lon="6.97228">
        <ele>1008.079834</ele>
        <time>2011-05-08T10:20:25Z</time>
      </trkpt>
      <trkpt lat="43.72974" lon="6.97247">
        <ele>1005.1958008</ele>
        <time>2011-05-08T10:20:44Z</time>
      </trkpt>
      <trkpt lat="43.72969" lon="6.97263">
        <ele>1002.7922363</ele>
        <time>2011-05-08T10:20:56Z</time>
      </trkpt>
      <trkpt lat="43.72961" lon="6.97284">
        <ele>999.4277344</ele>
        <time>2011-05-08T10:21:17Z</time>
      </trkpt>
      <trkpt lat="43.72958" lon="6.97262">
        <ele>994.6210938</ele>
        <time>2011-05-08T10:21:35Z</time>
      </trkpt>
      <trkpt lat="43.72949" lon="6.97257">
        <ele>992.6987305</ele>
        <time>2011-05-08T10:21:45Z</time>
      </trkpt>
      <trkpt lat="43.7294" lon="6.97279">
        <ele>989.8146973</ele>
        <time>2011-05-08T10:22:02Z</time>
      </trkpt>
      <trkpt lat="43.72934" lon="6.97296">
        <ele>986.9304199</ele>
        <time>2011-05-08T10:22:15Z</time>
      </trkpt>
      <trkpt lat="43.72932" lon="6.97275">
        <ele>983.565918</ele>
        <time>2011-05-08T10:22:32Z</time>
      </trkpt>
      <trkpt lat="43.72935" lon="6.97263">
        <ele>982.6047363</ele>
        <time>2011-05-08T10:22:42Z</time>
      </trkpt>
      <trkpt lat="43.72938" lon="6.97244">
        <ele>981.6433105</ele>
        <time>2011-05-08T10:22:53Z</time>
      </trkpt>
      <trkpt lat="43.72938" lon="6.97237">
        <ele>981.1628418</ele>
        <time>2011-05-08T10:22:57Z</time>
      </trkpt>
      <trkpt lat="43.72933" lon="6.9723">
        <ele>979.2399902</ele>
        <time>2011-05-08T10:23:07Z</time>
      </trkpt>
      <trkpt lat="43.72924" lon="6.97266">
        <ele>975.8754883</ele>
        <time>2011-05-08T10:23:27Z</time>
      </trkpt>
      <trkpt lat="43.72917" lon="6.97289">
        <ele>972.9916992</ele>
        <time>2011-05-08T10:23:43Z</time>
      </trkpt>
      <trkpt lat="43.72903" lon="6.97319">
        <ele>970.1074219</ele>
        <time>2011-05-08T10:24:04Z</time>
      </trkpt>
      <trkpt lat="43.72892" lon="6.97342">
        <ele>967.7041016</ele>
        <time>2011-05-08T10:24:18Z</time>
      </trkpt>
      <trkpt lat="43.72888" lon="6.97349">
        <ele>967.2236328</ele>
        <time>2011-05-08T10:24:24Z</time>
      </trkpt>
      <trkpt lat="43.72885" lon="6.97341">
        <ele>966.262207</ele>
        <time>2011-05-08T10:24:30Z</time>
      </trkpt>
      <trkpt lat="43.72893" lon="6.97313">
        <ele>963.8588867</ele>
        <time>2011-05-08T10:24:46Z</time>
      </trkpt>
      <trkpt lat="43.72898" lon="6.9729">
        <ele>960.9750977</ele>
        <time>2011-05-08T10:25:01Z</time>
      </trkpt>
      <trkpt lat="43.72898" lon="6.97266">
        <ele>958.5717773</ele>
        <time>2011-05-08T10:25:15Z</time>
      </trkpt>
      <trkpt lat="43.729" lon="6.97256">
        <ele>956.168457</ele>
        <time>2011-05-08T10:25:27Z</time>
      </trkpt>
      <trkpt lat="43.72892" lon="6.97256">
        <ele>953.2844238</ele>
        <time>2011-05-08T10:25:42Z</time>
      </trkpt>
      <trkpt lat="43.72887" lon="6.97269">
        <ele>950.4006348</ele>
        <time>2011-05-08T10:25:51Z</time>
      </trkpt>
      <trkpt lat="43.72883" lon="6.97279">
        <ele>948.9584961</ele>
        <time>2011-05-08T10:25:59Z</time>
      </trkpt>
      <trkpt lat="43.72872" lon="6.97292">
        <ele>946.5554199</ele>
        <time>2011-05-08T10:26:13Z</time>
      </trkpt>
      <trkpt lat="43.72867" lon="6.97293">
        <ele>945.1132813</ele>
        <time>2011-05-08T10:26:26Z</time>
      </trkpt>
      <trkpt lat="43.7287" lon="6.97277">
        <ele>943.6713867</ele>
        <time>2011-05-08T10:26:36Z</time>
      </trkpt>
      <trkpt lat="43.72874" lon="6.97254">
        <ele>940.3068848</ele>
        <time>2011-05-08T10:26:51Z</time>
      </trkpt>
      <trkpt lat="43.72875" lon="6.97245">
        <ele>939.3452148</ele>
        <time>2011-05-08T10:26:55Z</time>
      </trkpt>
      <trkpt lat="43.72871" lon="6.97248">
        <ele>937.4226074</ele>
        <time>2011-05-08T10:27:08Z</time>
      </trkpt>
      <trkpt lat="43.72843" lon="6.97299">
        <ele>931.6547852</ele>
        <time>2011-05-08T10:27:46Z</time>
      </trkpt>
      <trkpt lat="43.72836" lon="6.97311">
        <ele>929.7321777</ele>
        <time>2011-05-08T10:27:53Z</time>
      </trkpt>
      <trkpt lat="43.7282" lon="6.97343">
        <ele>926.8483887</ele>
        <time>2011-05-08T10:28:09Z</time>
      </trkpt>
      <trkpt lat="43.72808" lon="6.97364">
        <ele>923.4836426</ele>
        <time>2011-05-08T10:28:18Z</time>
      </trkpt>
      <trkpt lat="43.72794" lon="6.9738">
        <ele>920.1188965</ele>
        <time>2011-05-08T10:28:27Z</time>
      </trkpt>
      <trkpt lat="43.72773" lon="6.97414">
        <ele>917.2351074</ele>
        <time>2011-05-08T10:28:43Z</time>
      </trkpt>
      <trkpt lat="43.72757" lon="6.97426">
        <ele>914.3510742</ele>
        <time>2011-05-08T10:28:53Z</time>
      </trkpt>
      <trkpt lat="43.72767" lon="6.97397">
        <ele>910.9865723</ele>
        <time>2011-05-08T10:29:14Z</time>
      </trkpt>
      <trkpt lat="43.72767" lon="6.97368">
        <ele>908.583252</ele>
        <time>2011-05-08T10:29:22Z</time>
      </trkpt>
      <trkpt lat="43.72768" lon="6.97354">
        <ele>906.6604004</ele>
        <time>2011-05-08T10:29:27Z</time>
      </trkpt>
      <trkpt lat="43.72769" lon="6.97335">
        <ele>904.737793</ele>
        <time>2011-05-08T10:29:35Z</time>
      </trkpt>
      <trkpt lat="43.72772" lon="6.97309">
        <ele>900.4121094</ele>
        <time>2011-05-08T10:29:46Z</time>
      </trkpt>
      <trkpt lat="43.72778" lon="6.9727">
        <ele>897.5280762</ele>
        <time>2011-05-08T10:29:58Z</time>
      </trkpt>
      <trkpt lat="43.72777" lon="6.97257">
        <ele>894.644043</ele>
        <time>2011-05-08T10:30:08Z</time>
      </trkpt>
      <trkpt lat="43.72773" lon="6.97243">
        <ele>890.3181152</ele>
        <time>2011-05-08T10:30:15Z</time>
      </trkpt>
      <trkpt lat="43.72769" lon="6.97232">
        <ele>889.8374023</ele>
        <time>2011-05-08T10:30:25Z</time>
      </trkpt>
      <trkpt lat="43.7276" lon="6.9723">
        <ele>887.9147949</ele>
        <time>2011-05-08T10:30:38Z</time>
      </trkpt>
      <trkpt lat="43.72754" lon="6.97227">
        <ele>887.9147949</ele>
        <time>2011-05-08T10:30:55Z</time>
      </trkpt>
      <trkpt lat="43.7275" lon="6.97221">
        <ele>885.9921875</ele>
        <time>2011-05-08T10:31:01Z</time>
      </trkpt>
      <trkpt lat="43.72746" lon="6.97203">
        <ele>883.5888672</ele>
        <time>2011-05-08T10:31:15Z</time>
      </trkpt>
      <trkpt lat="43.72743" lon="6.97182">
        <ele>881.6662598</ele>
        <time>2011-05-08T10:31:30Z</time>
      </trkpt>
      <trkpt lat="43.72744" lon="6.97157">
        <ele>878.7824707</ele>
        <time>2011-05-08T10:31:47Z</time>
      </trkpt>
      <trkpt lat="43.72742" lon="6.97142">
        <ele>875.4174805</ele>
        <time>2011-05-08T10:31:59Z</time>
      </trkpt>
      <trkpt lat="43.72739" lon="6.97134">
        <ele>875.4174805</ele>
        <time>2011-05-08T10:32:12Z</time>
      </trkpt>
      <trkpt lat="43.72734" lon="6.97129">
        <ele>873.4951172</ele>
        <time>2011-05-08T10:32:15Z</time>
      </trkpt>
      <trkpt lat="43.72721" lon="6.97145">
        <ele>871.5722656</ele>
        <time>2011-05-08T10:32:25Z</time>
      </trkpt>
      <trkpt lat="43.72708" lon="6.97167">
        <ele>869.6499023</ele>
        <time>2011-05-08T10:32:38Z</time>
      </trkpt>
      <trkpt lat="43.72692" lon="6.97198">
        <ele>867.7270508</ele>
        <time>2011-05-08T10:32:57Z</time>
      </trkpt>
      <trkpt lat="43.72684" lon="6.9721">
        <ele>866.7658691</ele>
        <time>2011-05-08T10:33:05Z</time>
      </trkpt>
      <trkpt lat="43.72673" lon="6.97228">
        <ele>866.2851563</ele>
        <time>2011-05-08T10:33:19Z</time>
      </trkpt>
      <trkpt lat="43.7267" lon="6.97238">
        <ele>865.8046875</ele>
        <time>2011-05-08T10:33:36Z</time>
      </trkpt>
      <trkpt lat="43.72665" lon="6.97251">
        <ele>865.8046875</ele>
        <time>2011-05-08T10:33:51Z</time>
      </trkpt>
      <trkpt lat="43.72656" lon="6.97272">
        <ele>865.3239746</ele>
        <time>2011-05-08T10:34:05Z</time>
      </trkpt>
      <trkpt lat="43.72639" lon="6.97297">
        <ele>864.3625488</ele>
        <time>2011-05-08T10:34:24Z</time>
      </trkpt>
      <trkpt lat="43.72626" lon="6.97324">
        <ele>863.8818359</ele>
        <time>2011-05-08T10:34:40Z</time>
      </trkpt>
      <trkpt lat="43.72619" lon="6.97349">
        <ele>863.4013672</ele>
        <time>2011-05-08T10:34:55Z</time>
      </trkpt>
      <trkpt lat="43.72616" lon="6.97369">
        <ele>863.4013672</ele>
        <time>2011-05-08T10:35:07Z</time>
      </trkpt>
      <trkpt lat="43.72605" lon="6.97394">
        <ele>862.4399414</ele>
        <time>2011-05-08T10:35:21Z</time>
      </trkpt>
      <trkpt lat="43.72599" lon="6.97426">
        <ele>861.4787598</ele>
        <time>2011-05-08T10:35:38Z</time>
      </trkpt>
      <trkpt lat="43.72601" lon="6.97448">
        <ele>861.9594727</ele>
        <time>2011-05-08T10:35:52Z</time>
      </trkpt>
      <trkpt lat="43.72603" lon="6.97464">
        <ele>862.4399414</ele>
        <time>2011-05-08T10:36:06Z</time>
      </trkpt>
      <trkpt lat="43.72604" lon="6.97482">
        <ele>863.4013672</ele>
        <time>2011-05-08T10:36:19Z</time>
      </trkpt>
      <trkpt lat="43.72598" lon="6.97498">
        <ele>863.8818359</ele>
        <time>2011-05-08T10:36:24Z</time>
      </trkpt>
      <trkpt lat="43.72603" lon="6.9751">
        <ele>864.3625488</ele>
        <time>2011-05-08T10:36:35Z</time>
      </trkpt>
      <trkpt lat="43.72601" lon="6.9753">
        <ele>864.3625488</ele>
        <time>2011-05-08T10:36:50Z</time>
      </trkpt>
      <trkpt lat="43.72596" lon="6.97537">
        <ele>863.8818359</ele>
        <time>2011-05-08T10:36:57Z</time>
      </trkpt>
      <trkpt lat="43.7259" lon="6.97518">
        <ele>861.4787598</ele>
        <time>2011-05-08T10:37:08Z</time>
      </trkpt>
      <trkpt lat="43.72582" lon="6.97496">
        <ele>858.1140137</ele>
        <time>2011-05-08T10:37:21Z</time>
      </trkpt>
      <trkpt lat="43.72569" lon="6.97473">
        <ele>855.2299805</ele>
        <time>2011-05-08T10:37:38Z</time>
      </trkpt>
      <trkpt lat="43.7256" lon="6.97457">
        <ele>854.2687988</ele>
        <time>2011-05-08T10:37:53Z</time>
      </trkpt>
      <trkpt lat="43.72549" lon="6.97441">
        <ele>852.8266602</ele>
        <time>2011-05-08T10:38:07Z</time>
      </trkpt>
      <trkpt lat="43.72539" lon="6.97432">
        <ele>852.8266602</ele>
        <time>2011-05-08T10:38:18Z</time>
      </trkpt>
      <trkpt lat="43.72529" lon="6.9745">
        <ele>850.423584</ele>
        <time>2011-05-08T10:38:33Z</time>
      </trkpt>
      <trkpt lat="43.7252" lon="6.97471">
        <ele>848.5007324</ele>
        <time>2011-05-08T10:38:48Z</time>
      </trkpt>
      <trkpt lat="43.7251" lon="6.97487">
        <ele>846.5783691</ele>
        <time>2011-05-08T10:39:02Z</time>
      </trkpt>
      <trkpt lat="43.72501" lon="6.97506">
        <ele>844.6555176</ele>
        <time>2011-05-08T10:39:17Z</time>
      </trkpt>
      <trkpt lat="43.72495" lon="6.97521">
        <ele>842.7329102</ele>
        <time>2011-05-08T10:39:28Z</time>
      </trkpt>
      <trkpt lat="43.72495" lon="6.97535">
        <ele>841.2907715</ele>
        <time>2011-05-08T10:39:38Z</time>
      </trkpt>
      <trkpt lat="43.72488" lon="6.97551">
        <ele>837.4455566</ele>
        <time>2011-05-08T10:39:52Z</time>
      </trkpt>
      <trkpt lat="43.72484" lon="6.97563">
        <ele>833.1196289</ele>
        <time>2011-05-08T10:40:03Z</time>
      </trkpt>
      <trkpt lat="43.72478" lon="6.97578">
        <ele>830.2358398</ele>
        <time>2011-05-08T10:40:16Z</time>
      </trkpt>
      <trkpt lat="43.72464" lon="6.9759">
        <ele>828.7939453</ele>
        <time>2011-05-08T10:40:31Z</time>
      </trkpt>
      <trkpt lat="43.72453" lon="6.97599">
        <ele>825.909668</ele>
        <time>2011-05-08T10:40:42Z</time>
      </trkpt>
      <trkpt lat="43.72445" lon="6.97606">
        <ele>823.9870605</ele>
        <time>2011-05-08T10:40:51Z</time>
      </trkpt>
      <trkpt lat="43.72435" lon="6.97603">
        <ele>822.545166</ele>
        <time>2011-05-08T10:41:01Z</time>
      </trkpt>
      <trkpt lat="43.72424" lon="6.97584">
        <ele>820.6225586</ele>
        <time>2011-05-08T10:41:19Z</time>
      </trkpt>
      <trkpt lat="43.72419" lon="6.97596">
        <ele>816.2966309</ele>
        <time>2011-05-08T10:41:36Z</time>
      </trkpt>
      <trkpt lat="43.72416" lon="6.9761">
        <ele>813.8933105</ele>
        <time>2011-05-08T10:41:46Z</time>
      </trkpt>
      <trkpt lat="43.7241" lon="6.97598">
        <ele>811.0092773</ele>
        <time>2011-05-08T10:42:06Z</time>
      </trkpt>
      <trkpt lat="43.72407" lon="6.9759">
        <ele>809.5673828</ele>
        <time>2011-05-08T10:42:32Z</time>
      </trkpt>
      <trkpt lat="43.72399" lon="6.9757">
        <ele>807.6447754</ele>
        <time>2011-05-08T10:42:48Z</time>
      </trkpt>
      <trkpt lat="43.72395" lon="6.97552">
        <ele>804.2802734</ele>
        <time>2011-05-08T10:43:03Z</time>
      </trkpt>
      <trkpt lat="43.72348" lon="6.97472">
        <ele>792.2636719</ele>
        <time>2011-05-08T10:44:06Z</time>
      </trkpt>
      <trkpt lat="43.72339" lon="6.9748">
        <ele>789.8603516</ele>
        <time>2011-05-08T10:44:26Z</time>
      </trkpt>
      <trkpt lat="43.72337" lon="6.9749">
        <ele>789.3796387</ele>
        <time>2011-05-08T10:44:43Z</time>
      </trkpt>
      <trkpt lat="43.72324" lon="6.97496">
        <ele>786.4958496</ele>
        <time>2011-05-08T10:44:56Z</time>
      </trkpt>
      <trkpt lat="43.72308" lon="6.97505">
        <ele>785.0539551</ele>
        <time>2011-05-08T10:45:12Z</time>
      </trkpt>
      <trkpt lat="43.72292" lon="6.97513">
        <ele>784.0925293</ele>
        <time>2011-05-08T10:45:28Z</time>
      </trkpt>
      <trkpt lat="43.72276" lon="6.97513">
        <ele>783.6118164</ele>
        <time>2011-05-08T10:45:41Z</time>
      </trkpt>
      <trkpt lat="43.7226" lon="6.97494">
        <ele>784.0925293</ele>
        <time>2011-05-08T10:45:57Z</time>
      </trkpt>
      <trkpt lat="43.7224" lon="6.97493">
        <ele>782.1699219</ele>
        <time>2011-05-08T10:46:12Z</time>
      </trkpt>
      <trkpt lat="43.72232" lon="6.97493">
        <ele>781.689209</ele>
        <time>2011-05-08T10:46:18Z</time>
      </trkpt>
      <trkpt lat="43.72224" lon="6.975">
        <ele>780.7280273</ele>
        <time>2011-05-08T10:46:25Z</time>
      </trkpt>
      <trkpt lat="43.72213" lon="6.97494">
        <ele>778.3244629</ele>
        <time>2011-05-08T10:46:39Z</time>
      </trkpt>
      <trkpt lat="43.72203" lon="6.97478">
        <ele>775.4404297</ele>
        <time>2011-05-08T10:46:53Z</time>
      </trkpt>
      <trkpt lat="43.72194" lon="6.97465">
        <ele>772.5566406</ele>
        <time>2011-05-08T10:47:06Z</time>
      </trkpt>
      <trkpt lat="43.72183" lon="6.97451">
        <ele>770.6340332</ele>
        <time>2011-05-08T10:47:21Z</time>
      </trkpt>
      <trkpt lat="43.72177" lon="6.97443">
        <ele>769.6728516</ele>
        <time>2011-05-08T10:47:31Z</time>
      </trkpt>
      <trkpt lat="43.72168" lon="6.97439">
        <ele>767.2695313</ele>
        <time>2011-05-08T10:47:46Z</time>
      </trkpt>
      <trkpt lat="43.72169" lon="6.975">
        <ele>763.904541</ele>
        <time>2011-05-08T10:48:25Z</time>
      </trkpt>
      <trkpt lat="43.72172" lon="6.9753">
        <ele>761.5014648</ele>
        <time>2011-05-08T10:48:40Z</time>
      </trkpt>
      <trkpt lat="43.72182" lon="6.97548">
        <ele>758.6174316</ele>
        <time>2011-05-08T10:48:54Z</time>
      </trkpt>
      <trkpt lat="43.72182" lon="6.97555">
        <ele>757.65625</ele>
        <time>2011-05-08T10:49:00Z</time>
      </trkpt>
      <trkpt lat="43.7218" lon="6.97564">
        <ele>755.2529297</ele>
        <time>2011-05-08T10:49:05Z</time>
      </trkpt>
      <trkpt lat="43.72184" lon="6.97587">
        <ele>754.7722168</ele>
        <time>2011-05-08T10:49:19Z</time>
      </trkpt>
      <trkpt lat="43.7218" lon="6.97611">
        <ele>753.8110352</ele>
        <time>2011-05-08T10:49:33Z</time>
      </trkpt>
      <trkpt lat="43.72169" lon="6.97636">
        <ele>752.8496094</ele>
        <time>2011-05-08T10:49:49Z</time>
      </trkpt>
      <trkpt lat="43.72155" lon="6.97666">
        <ele>751.8884277</ele>
        <time>2011-05-08T10:50:08Z</time>
      </trkpt>
      <trkpt lat="43.72151" lon="6.97674">
        <ele>750.4465332</ele>
        <time>2011-05-08T10:50:16Z</time>
      </trkpt>
      <trkpt lat="43.72143" lon="6.97696">
        <ele>747.5622559</ele>
        <time>2011-05-08T10:50:30Z</time>
      </trkpt>
      <trkpt lat="43.72132" lon="6.97722">
        <ele>748.0432129</ele>
        <time>2011-05-08T10:50:48Z</time>
      </trkpt>
      <trkpt lat="43.72122" lon="6.97757">
        <ele>752.8496094</ele>
        <time>2011-05-08T10:51:16Z</time>
      </trkpt>
      <trkpt lat="43.7211" lon="6.97781">
        <ele>755.2529297</ele>
        <time>2011-05-08T10:51:55Z</time>
      </trkpt>
      <trkpt lat="43.7209" lon="6.97797">
        <ele>757.1755371</ele>
        <time>2011-05-08T10:52:11Z</time>
      </trkpt>
      <trkpt lat="43.72026" lon="6.97885">
        <ele>763.4240723</ele>
        <time>2011-05-08T10:56:47Z</time>
      </trkpt>
      <trkpt lat="43.72024" lon="6.97927">
        <ele>757.65625</ele>
        <time>2011-05-08T10:57:38Z</time>
      </trkpt>
      <trkpt lat="43.72035" lon="6.9794">
        <ele>752.8496094</ele>
        <time>2011-05-08T10:57:52Z</time>
      </trkpt>
      <trkpt lat="43.72049" lon="6.9795">
        <ele>748.0432129</ele>
        <time>2011-05-08T10:58:14Z</time>
      </trkpt>
      <trkpt lat="43.72054" lon="6.97962">
        <ele>744.6782227</ele>
        <time>2011-05-08T10:58:28Z</time>
      </trkpt>
      <trkpt lat="43.72069" lon="6.97966">
        <ele>741.3137207</ele>
        <time>2011-05-08T10:58:39Z</time>
      </trkpt>
      <trkpt lat="43.72062" lon="6.97968">
        <ele>739.3911133</ele>
        <time>2011-05-08T10:58:51Z</time>
      </trkpt>
      <trkpt lat="43.72041" lon="6.97966">
        <ele>736.5073242</ele>
        <time>2011-05-08T10:59:12Z</time>
      </trkpt>
      <trkpt lat="43.72015" lon="6.97978">
        <ele>732.6621094</ele>
        <time>2011-05-08T10:59:36Z</time>
      </trkpt>
      <trkpt lat="43.72005" lon="6.97975">
        <ele>729.777832</ele>
        <time>2011-05-08T10:59:49Z</time>
      </trkpt>
      <trkpt lat="43.71972" lon="6.97967">
        <ele>725.4519043</ele>
        <time>2011-05-08T11:00:27Z</time>
      </trkpt>
      <trkpt lat="43.71961" lon="6.97954">
        <ele>722.5681152</ele>
        <time>2011-05-08T11:00:42Z</time>
      </trkpt>
      <trkpt lat="43.71953" lon="6.97957">
        <ele>718.2421875</ele>
        <time>2011-05-08T11:01:08Z</time>
      </trkpt>
      <trkpt lat="43.71932" lon="6.97964">
        <ele>711.5129395</ele>
        <time>2011-05-08T11:01:41Z</time>
      </trkpt>
      <trkpt lat="43.71939" lon="6.97988">
        <ele>705.2644043</ele>
        <time>2011-05-08T11:02:15Z</time>
      </trkpt>
      <trkpt lat="43.7196" lon="6.98002">
        <ele>698.0544434</ele>
        <time>2011-05-08T11:02:45Z</time>
      </trkpt>
      <trkpt lat="43.71923" lon="6.9802">
        <ele>691.8059082</ele>
        <time>2011-05-08T11:03:42Z</time>
      </trkpt>
      <trkpt lat="43.71912" lon="6.98011">
        <ele>688.4414063</ele>
        <time>2011-05-08T11:03:56Z</time>
      </trkpt>
      <trkpt lat="43.71905" lon="6.98004">
        <ele>685.0769043</ele>
        <time>2011-05-08T11:04:10Z</time>
      </trkpt>
      <trkpt lat="43.71903" lon="6.97997">
        <ele>684.1154785</ele>
        <time>2011-05-08T11:04:16Z</time>
      </trkpt>
      <trkpt lat="43.71896" lon="6.97996">
        <ele>680.2700195</ele>
        <time>2011-05-08T11:04:31Z</time>
      </trkpt>
      <trkpt lat="43.71886" lon="6.97973">
        <ele>671.6181641</ele>
        <time>2011-05-08T11:05:18Z</time>
      </trkpt>
      <trkpt lat="43.7188" lon="6.97967">
        <ele>668.734375</ele>
        <time>2011-05-08T11:05:34Z</time>
      </trkpt>
      <trkpt lat="43.71878" lon="6.97959">
        <ele>665.3696289</ele>
        <time>2011-05-08T11:05:44Z</time>
      </trkpt>
      <trkpt lat="43.7187" lon="6.97945">
        <ele>661.0437012</ele>
        <time>2011-05-08T11:06:20Z</time>
      </trkpt>
      <trkpt lat="43.71866" lon="6.97926">
        <ele>655.2758789</ele>
        <time>2011-05-08T11:06:48Z</time>
      </trkpt>
      <trkpt lat="43.71861" lon="6.97917">
        <ele>651.9111328</ele>
        <time>2011-05-08T11:06:59Z</time>
      </trkpt>
      <trkpt lat="43.71854" lon="6.97901">
        <ele>648.5463867</ele>
        <time>2011-05-08T11:07:14Z</time>
      </trkpt>
      <trkpt lat="43.71855" lon="6.97908">
        <ele>647.1044922</ele>
        <time>2011-05-08T11:07:26Z</time>
      </trkpt>
      <trkpt lat="43.71858" lon="6.97923">
        <ele>643.7399902</ele>
        <time>2011-05-08T11:07:37Z</time>
      </trkpt>
      <trkpt lat="43.71851" lon="6.97942">
        <ele>641.8173828</ele>
        <time>2011-05-08T11:07:54Z</time>
      </trkpt>
      <trkpt lat="43.71844" lon="6.97951">
        <ele>639.8947754</ele>
        <time>2011-05-08T11:08:08Z</time>
      </trkpt>
      <trkpt lat="43.71837" lon="6.97955">
        <ele>636.5302734</ele>
        <time>2011-05-08T11:08:18Z</time>
      </trkpt>
      <trkpt lat="43.7183" lon="6.97965">
        <ele>633.6459961</ele>
        <time>2011-05-08T11:08:32Z</time>
      </trkpt>
      <trkpt lat="43.71823" lon="6.97978">
        <ele>630.762207</ele>
        <time>2011-05-08T11:08:48Z</time>
      </trkpt>
      <trkpt lat="43.7183" lon="6.97952">
        <ele>626.4362793</ele>
        <time>2011-05-08T11:09:09Z</time>
      </trkpt>
      <trkpt lat="43.71822" lon="6.97957">
        <ele>623.5524902</ele>
        <time>2011-05-08T11:09:23Z</time>
      </trkpt>
      <trkpt lat="43.71816" lon="6.9796">
        <ele>621.1491699</ele>
        <time>2011-05-08T11:09:30Z</time>
      </trkpt>
      <trkpt lat="43.71802" lon="6.97967">
        <ele>618.2648926</ele>
        <time>2011-05-08T11:09:48Z</time>
      </trkpt>
      <trkpt lat="43.71796" lon="6.97973">
        <ele>616.3422852</ele>
        <time>2011-05-08T11:09:57Z</time>
      </trkpt>
      <trkpt lat="43.71787" lon="6.9798">
        <ele>612.4970703</ele>
        <time>2011-05-08T11:10:09Z</time>
      </trkpt>
      <trkpt lat="43.71796" lon="6.97961">
        <ele>607.2099609</ele>
        <time>2011-05-08T11:10:32Z</time>
      </trkpt>
      <trkpt lat="43.71792" lon="6.97964">
        <ele>605.2873535</ele>
        <time>2011-05-08T11:10:44Z</time>
      </trkpt>
      <trkpt lat="43.71796" lon="6.97954">
        <ele>602.4030762</ele>
        <time>2011-05-08T11:11:02Z</time>
      </trkpt>
      <trkpt lat="43.71788" lon="6.97955">
        <ele>600</ele>
        <time>2011-05-08T11:11:12Z</time>
      </trkpt>
      <trkpt lat="43.7178" lon="6.97949">
        <ele>596.635498</ele>
        <time>2011-05-08T11:11:26Z</time>
      </trkpt>
      <trkpt lat="43.71781" lon="6.97943">
        <ele>594.2321777</ele>
        <time>2011-05-08T11:11:41Z</time>
      </trkpt>
      <trkpt lat="43.71777" lon="6.97947">
        <ele>592.3095703</ele>
        <time>2011-05-08T11:11:48Z</time>
      </trkpt>
      <trkpt lat="43.71781" lon="6.9794">
        <ele>590.3869629</ele>
        <time>2011-05-08T11:11:59Z</time>
      </trkpt>
      <trkpt lat="43.7178" lon="6.97932">
        <ele>589.4255371</ele>
        <time>2011-05-08T11:12:11Z</time>
      </trkpt>
      <trkpt lat="43.71776" lon="6.97933">
        <ele>586.5415039</ele>
        <time>2011-05-08T11:12:48Z</time>
      </trkpt>
      <trkpt lat="43.71762" lon="6.97943">
        <ele>582.2155762</ele>
        <time>2011-05-08T11:13:05Z</time>
      </trkpt>
      <trkpt lat="43.71753" lon="6.97938">
        <ele>579.331543</ele>
        <time>2011-05-08T11:13:20Z</time>
      </trkpt>
      <trkpt lat="43.71767" lon="6.97922">
        <ele>577.4091797</ele>
        <time>2011-05-08T11:13:35Z</time>
      </trkpt>
      <trkpt lat="43.7177" lon="6.97905">
        <ele>575.967041</ele>
        <time>2011-05-08T11:13:49Z</time>
      </trkpt>
      <trkpt lat="43.71769" lon="6.97895">
        <ele>574.0444336</ele>
        <time>2011-05-08T11:13:57Z</time>
      </trkpt>
      <trkpt lat="43.71766" lon="6.97907">
        <ele>571.6408691</ele>
        <time>2011-05-08T11:14:15Z</time>
      </trkpt>
      <trkpt lat="43.71759" lon="6.97913">
        <ele>569.237793</ele>
        <time>2011-05-08T11:14:27Z</time>
      </trkpt>
      <trkpt lat="43.71758" lon="6.97903">
        <ele>566.8344727</ele>
        <time>2011-05-08T11:14:39Z</time>
      </trkpt>
      <trkpt lat="43.71758" lon="6.97888">
        <ele>563.9504395</ele>
        <time>2011-05-08T11:14:47Z</time>
      </trkpt>
      <trkpt lat="43.71747" lon="6.97855">
        <ele>560.1052246</ele>
        <time>2011-05-08T11:15:08Z</time>
      </trkpt>
      <trkpt lat="43.71741" lon="6.97851">
        <ele>559.144043</ele>
        <time>2011-05-08T11:15:13Z</time>
      </trkpt>
      <trkpt lat="43.71737" lon="6.9785">
        <ele>557.7021484</ele>
        <time>2011-05-08T11:15:17Z</time>
      </trkpt>
      <trkpt lat="43.7173" lon="6.97846">
        <ele>555.7792969</ele>
        <time>2011-05-08T11:15:25Z</time>
      </trkpt>
      <trkpt lat="43.71728" lon="6.97822">
        <ele>550.4921875</ele>
        <time>2011-05-08T11:15:48Z</time>
      </trkpt>
      <trkpt lat="43.71722" lon="6.97815">
        <ele>547.1274414</ele>
        <time>2011-05-08T11:15:55Z</time>
      </trkpt>
      <trkpt lat="43.71709" lon="6.97806">
        <ele>544.2436523</ele>
        <time>2011-05-08T11:16:11Z</time>
      </trkpt>
      <trkpt lat="43.71698" lon="6.97793">
        <ele>541.3594971</ele>
        <time>2011-05-08T11:16:25Z</time>
      </trkpt>
      <trkpt lat="43.71693" lon="6.97793">
        <ele>538.9562988</ele>
        <time>2011-05-08T11:16:35Z</time>
      </trkpt>
      <trkpt lat="43.71704" lon="6.97815">
        <ele>536.0723877</ele>
        <time>2011-05-08T11:16:53Z</time>
      </trkpt>
      <trkpt lat="43.71717" lon="6.9784">
        <ele>534.1496582</ele>
        <time>2011-05-08T11:17:10Z</time>
      </trkpt>
      <trkpt lat="43.71719" lon="6.97848">
        <ele>533.1883545</ele>
        <time>2011-05-08T11:17:16Z</time>
      </trkpt>
      <trkpt lat="43.71721" lon="6.97866">
        <ele>532.2270508</ele>
        <time>2011-05-08T11:17:31Z</time>
      </trkpt>
      <trkpt lat="43.71707" lon="6.97888">
        <ele>527.4204102</ele>
        <time>2011-05-08T11:17:51Z</time>
      </trkpt>
      <trkpt lat="43.71706" lon="6.97881">
        <ele>525.4978027</ele>
        <time>2011-05-08T11:18:01Z</time>
      </trkpt>
      <trkpt lat="43.71705" lon="6.97866">
        <ele>523.0946045</ele>
        <time>2011-05-08T11:18:12Z</time>
      </trkpt>
      <trkpt lat="43.71702" lon="6.97848">
        <ele>518.7685547</ele>
        <time>2011-05-08T11:19:14Z</time>
      </trkpt>
      <trkpt lat="43.71716" lon="6.97916">
        <ele>511.0780029</ele>
        <time>2011-05-08T11:21:49Z</time>
      </trkpt>
      <trkpt lat="43.71705" lon="6.97916">
        <ele>507.713501</ele>
        <time>2011-05-08T11:22:12Z</time>
      </trkpt>
      <trkpt lat="43.71686" lon="6.97928">
        <ele>504.8294678</ele>
        <time>2011-05-08T11:22:32Z</time>
      </trkpt>
      <trkpt lat="43.71681" lon="6.97937">
        <ele>503.3874512</ele>
        <time>2011-05-08T11:22:40Z</time>
      </trkpt>
      <trkpt lat="43.71674" lon="6.97941">
        <ele>500.0229492</ele>
        <time>2011-05-08T11:22:53Z</time>
      </trkpt>
      <trkpt lat="43.71672" lon="6.9792">
        <ele>496.6583252</ele>
        <time>2011-05-08T11:23:09Z</time>
      </trkpt>
      <trkpt lat="43.71671" lon="6.97902">
        <ele>494.2550049</ele>
        <time>2011-05-08T11:23:17Z</time>
      </trkpt>
      <trkpt lat="43.7167" lon="6.9789">
        <ele>490.40979</ele>
        <time>2011-05-08T11:23:27Z</time>
      </trkpt>
      <trkpt lat="43.71665" lon="6.97894">
        <ele>488.9677734</ele>
        <time>2011-05-08T11:23:34Z</time>
      </trkpt>
      <trkpt lat="43.71658" lon="6.97903">
        <ele>485.6030273</ele>
        <time>2011-05-08T11:23:51Z</time>
      </trkpt>
      <trkpt lat="43.7165" lon="6.97915">
        <ele>481.7578125</ele>
        <time>2011-05-08T11:24:05Z</time>
      </trkpt>
      <trkpt lat="43.7163" lon="6.97961">
        <ele>475.0286865</ele>
        <time>2011-05-08T11:24:35Z</time>
      </trkpt>
      <trkpt lat="43.71627" lon="6.97987">
        <ele>473.1060791</ele>
        <time>2011-05-08T11:24:49Z</time>
      </trkpt>
      <trkpt lat="43.71624" lon="6.98">
        <ele>470.7026367</ele>
        <time>2011-05-08T11:24:56Z</time>
      </trkpt>
      <trkpt lat="43.71617" lon="6.98008">
        <ele>464.9348145</ele>
        <time>2011-05-08T11:25:25Z</time>
      </trkpt>
      <trkpt lat="43.71616" lon="6.98015">
        <ele>463.9733887</ele>
        <time>2011-05-08T11:25:29Z</time>
      </trkpt>
      <trkpt lat="43.71613" lon="6.98026">
        <ele>462.0507813</ele>
        <time>2011-05-08T11:25:35Z</time>
      </trkpt>
      <trkpt lat="43.71606" lon="6.98039">
        <ele>458.6861572</ele>
        <time>2011-05-08T11:25:47Z</time>
      </trkpt>
      <trkpt lat="43.716" lon="6.98031">
        <ele>456.7635498</ele>
        <time>2011-05-08T11:25:56Z</time>
      </trkpt>
      <trkpt lat="43.71596" lon="6.98023">
        <ele>454.8408203</ele>
        <time>2011-05-08T11:26:02Z</time>
      </trkpt>
      <trkpt lat="43.71588" lon="6.98017">
        <ele>452.4376221</ele>
        <time>2011-05-08T11:26:13Z</time>
      </trkpt>
      <trkpt lat="43.71579" lon="6.98028">
        <ele>449.072998</ele>
        <time>2011-05-08T11:26:24Z</time>
      </trkpt>
      <trkpt lat="43.71572" lon="6.98055">
        <ele>445.708374</ele>
        <time>2011-05-08T11:26:41Z</time>
      </trkpt>
      <trkpt lat="43.71574" lon="6.9806">
        <ele>445.2276611</ele>
        <time>2011-05-08T11:27:14Z</time>
      </trkpt>
      <trkpt lat="43.71574" lon="6.98069">
        <ele>443.3050537</ele>
        <time>2011-05-08T11:27:22Z</time>
      </trkpt>
      <trkpt lat="43.71575" lon="6.98087">
        <ele>439.9404297</ele>
        <time>2011-05-08T11:27:34Z</time>
      </trkpt>
      <trkpt lat="43.71576" lon="6.98098">
        <ele>437.0565186</ele>
        <time>2011-05-08T11:27:43Z</time>
      </trkpt>
      <trkpt lat="43.71575" lon="6.98121">
        <ele>434.6533203</ele>
        <time>2011-05-08T11:27:59Z</time>
      </trkpt>
      <trkpt lat="43.71575" lon="6.98138">
        <ele>431.2885742</ele>
        <time>2011-05-08T11:28:13Z</time>
      </trkpt>
      <trkpt lat="43.71569" lon="6.98168">
        <ele>428.4046631</ele>
        <time>2011-05-08T11:28:36Z</time>
      </trkpt>
      <trkpt lat="43.71571" lon="6.98177">
        <ele>426.9627686</ele>
        <time>2011-05-08T11:28:47Z</time>
      </trkpt>
      <trkpt lat="43.71558" lon="6.9817">
        <ele>419.2722168</ele>
        <time>2011-05-08T11:29:27Z</time>
      </trkpt>
      <trkpt lat="43.7155" lon="6.98162">
        <ele>417.8302002</ele>
        <time>2011-05-08T11:29:35Z</time>
      </trkpt>
      <trkpt lat="43.71545" lon="6.98172">
        <ele>414.946167</ele>
        <time>2011-05-08T11:29:51Z</time>
      </trkpt>
      <trkpt lat="43.71544" lon="6.98198">
        <ele>411.1009521</ele>
        <time>2011-05-08T11:30:11Z</time>
      </trkpt>
      <trkpt lat="43.71544" lon="6.98215">
        <ele>407.7363281</ele>
        <time>2011-05-08T11:30:24Z</time>
      </trkpt>
      <trkpt lat="43.71548" lon="6.98237">
        <ele>404.3717041</ele>
        <time>2011-05-08T11:30:43Z</time>
      </trkpt>
      <trkpt lat="43.71565" lon="6.98285">
        <ele>397.6424561</ele>
        <time>2011-05-08T11:31:15Z</time>
      </trkpt>
      <trkpt lat="43.71566" lon="6.98291">
        <ele>397.6424561</ele>
        <time>2011-05-08T11:31:19Z</time>
      </trkpt>
      <trkpt lat="43.71572" lon="6.98337">
        <ele>391.3937988</ele>
        <time>2011-05-08T11:31:49Z</time>
      </trkpt>
      <trkpt lat="43.71577" lon="6.98382">
        <ele>385.1453857</ele>
        <time>2011-05-08T11:32:17Z</time>
      </trkpt>
      <trkpt lat="43.71576" lon="6.98396">
        <ele>383.2226563</ele>
        <time>2011-05-08T11:32:26Z</time>
      </trkpt>
      <trkpt lat="43.71592" lon="6.98401">
        <ele>382.2613525</ele>
        <time>2011-05-08T11:32:32Z</time>
      </trkpt>
      <trkpt lat="43.71596" lon="6.9842">
        <ele>378.4161377</ele>
        <time>2011-05-08T11:32:47Z</time>
      </trkpt>
      <trkpt lat="43.71589" lon="6.98428">
        <ele>357.2670898</ele>
        <time>2011-05-08T11:34:20Z</time>
      </trkpt>
      <trkpt lat="43.71574" lon="6.98447">
        <ele>353.9025879</ele>
        <time>2011-05-08T11:34:31Z</time>
      </trkpt>
      <trkpt lat="43.71553" lon="6.98484">
        <ele>351.9798584</ele>
        <time>2011-05-08T11:34:40Z</time>
      </trkpt>
      <trkpt lat="43.71539" lon="6.98509">
        <ele>342.84729</ele>
        <time>2011-05-08T11:35:16Z</time>
      </trkpt>
      <trkpt lat="43.71539" lon="6.98515">
        <ele>333.2341309</ele>
        <time>2011-05-08T11:35:59Z</time>
      </trkpt>
      <trkpt lat="43.71539" lon="6.98573">
        <ele>326.5048828</ele>
        <time>2011-05-08T11:36:24Z</time>
      </trkpt>
      <trkpt lat="43.7154" lon="6.98596">
        <ele>326.0241699</ele>
        <time>2011-05-08T11:36:26Z</time>
      </trkpt>
      <trkpt lat="43.71536" lon="6.98616">
        <ele>311.6044922</ele>
        <time>2011-05-08T11:37:31Z</time>
      </trkpt>
      <trkpt lat="43.71601" lon="6.98664">
        <ele>309.2011719</ele>
        <time>2011-05-08T11:38:11Z</time>
      </trkpt>
      <trkpt lat="43.7161" lon="6.98689">
        <ele>306.3172607</ele>
        <time>2011-05-08T11:38:29Z</time>
      </trkpt>
      <trkpt lat="43.71602" lon="6.98698">
        <ele>302.9525146</ele>
        <time>2011-05-08T11:38:42Z</time>
      </trkpt>
      <trkpt lat="43.71602" lon="6.98697">
        <ele>299.5880127</ele>
        <time>2011-05-08T11:39:00Z</time>
      </trkpt>
      <trkpt lat="43.71613" lon="6.98705">
        <ele>297.1846924</ele>
        <time>2011-05-08T11:39:44Z</time>
      </trkpt>
      <trkpt lat="43.71715" lon="6.98742">
        <ele>288.532959</ele>
        <time>2011-05-08T11:40:56Z</time>
      </trkpt>
      <trkpt lat="43.71717" lon="6.98748">
        <ele>276.9970703</ele>
        <time>2011-05-08T11:42:02Z</time>
      </trkpt>
      <trkpt lat="43.71772" lon="6.98824">
        <ele>268.8258057</ele>
        <time>2011-05-08T11:43:44Z</time>
      </trkpt>
      <trkpt lat="43.71771" lon="6.98824">
        <ele>264.0192871</ele>
        <time>2011-05-08T11:44:07Z</time>
      </trkpt>
      <trkpt lat="43.71816" lon="6.98862">
        <ele>261.1352539</ele>
        <time>2011-05-08T11:44:25Z</time>
      </trkpt>
      <trkpt lat="43.71841" lon="6.98877">
        <ele>260.1739502</ele>
        <time>2011-05-08T11:44:57Z</time>
      </trkpt>
      <trkpt lat="43.71842" lon="6.98879">
        <ele>260.1739502</ele>
        <time>2011-05-08T11:45:25Z</time>
      </trkpt>
    </trkseg>
  </trk>
</gpx>